M I D A S
Marine Information and Data Acquisition System
Tripno 490 of the Zeeleeuw from 2003-04-11 08:23:34 to 2003-04-11 16:45:56
Back to CruiseResearch ActivitiesStationsMapUnderway DataData graphs

EquipmentUnitsComment
TimeDGPSUTC
LatitudeDGPSDM.mWGS84
LongitudeDGPSDM.mWGS84
TemperatureSBE03/SBE38deg celciusITS90
ConductivitySBE21S/mITS90
SalinitySBE21 Practical Salinity Units
ChlorophylAChelsea fluorimeterg/lCalibrated in Aceton
Missing or incorrect values are displayed as -999
Sea surface data collected by the RV Zeeleeuw from 2003-04-11 08:23:34 to 2003-04-11 16:45:56
                                                                                    Next 1000 lines
Time Latitude Longitude Temperature Conductivity Salinity ChlorophylA
2003-04-11 08:23:40 51°38.92 3°18.86 -999 0.033163 0.19653 -0.612702
2003-04-11 08:23:46 51°38.93 3°18.89 -999 0.033163 0.19653 -0.612702
2003-04-11 08:23:50 51°38.94 3°18.91 -999 0.033475 0.198402 -0.545283
2003-04-11 08:23:56 51°38.96 3°18.94 -999 0.036697 0.217893 -0.578993
2003-04-11 08:24:00 51°38.97 3°18.96 -999 0.032643 0.193364 -0.545283
2003-04-11 08:24:06 51°38.99 3°18.99 -999 0.03493 0.207161 -0.545283
2003-04-11 08:24:10 51°39 3°19.01 -999 0.03493 0.207161 -0.545283
2003-04-11 08:24:16 51°39.01 3°19.04 -999 0.033995 0.201492 -0.578993
2003-04-11 08:24:20 51°39.02 3°19.06 -999 0.036697 0.2179 -0.511574
2003-04-11 08:24:26 51°39.04 3°19.09 -999 0.037529 0.222959 -0.511574
2003-04-11 08:24:30 51°39.05 3°19.11 -999 0.033787 0.2003 -0.511574
2003-04-11 08:24:36 51°39.07 3°19.14 -999 0.040543 0.241316 -0.511574
2003-04-11 08:24:40 51°39.08 3°19.16 -999 0.037009 0.219792 -0.477864
2003-04-11 08:24:46 51°39.1 3°19.19 -999 0.037009 0.219792 -0.477864
2003-04-11 08:24:50 51°39.1 3°19.21 -999 0.030876 0.182699 -0.511574
2003-04-11 08:24:56 51°39.12 3°19.24 -999 0.050939 0.305015 -0.477864
2003-04-11 08:25:00 51°39.13 3°19.26 -999 0.038464 0.228608 -0.477864
2003-04-11 08:25:06 51°39.15 3°19.29 -999 0.038776 0.230516 -0.444155
2003-04-11 08:25:10 51°39.16 3°19.32 -999 0.038049 0.226076 -0.477864
2003-04-11 08:25:16 51°39.17 3°19.35 -999 0.038049 0.226076 -0.477864
2003-04-11 08:25:20 51°39.18 3°19.37 -999 0.037633 0.223563 -0.511574
2003-04-11 08:25:26 51°39.2 3°19.4 -999 0.043038 0.256487 -0.477864
2003-04-11 08:25:30 51°39.21 3°19.42 -999 0.033891 0.200857 -0.511574
2003-04-11 08:25:36 51°39.22 3°19.45 -999 0.038776 0.230463 -0.511574
2003-04-11 08:25:40 51°39.23 3°19.47 -999 0.042934 0.255824 -0.545283
2003-04-11 08:25:46 51°39.25 3°19.5 -999 0.042934 0.255824 -0.545283
2003-04-11 08:25:50 51°39.26 3°19.53 -999 0.035242 0.209022 -0.545283
2003-04-11 08:25:56 51°39.27 3°19.56 -999 0.037113 0.220403 -0.545283
2003-04-11 08:26:00 51°39.28 3°19.58 -999 0.03493 0.207154 -0.545283
2003-04-11 08:26:06 51°39.3 3°19.61 -999 0.033163 0.19644 -0.578993
2003-04-11 08:26:10 51°39.31 3°19.63 -999 0.037321 0.221602 -0.578993
2003-04-11 08:26:16 51°39.32 3°19.66 -999 0.037321 0.221602 -0.578993
2003-04-11 08:26:20 51°39.33 3°19.68 -999 0.032124 0.190195 -0.578993
2003-04-11 08:26:26 51°39.35 3°19.71 -999 0.033059 0.195896 -0.578993
2003-04-11 08:26:30 51°39.36 3°19.73 -999 0.042103 0.25091 -0.578993
2003-04-11 08:26:36 51°39.37 3°19.76 -999 0.038361 0.228127 -0.545283
2003-04-11 08:26:40 51°39.38 3°19.78 -999 0.03202 0.189686 -0.612702
2003-04-11 08:26:46 51°39.4 3°19.81 -999 0.03202 0.189686 -0.612702
2003-04-11 08:26:50 51°39.41 3°19.83 -999 0.037009 0.219902 -0.578993
2003-04-11 08:26:56 51°39.43 3°19.86 -999 0.035866 0.212965 -0.578993
2003-04-11 08:27:00 51°39.44 3°19.88 -999 0.036489 0.216786 -0.545283
2003-04-11 08:27:06 51°39.45 3°19.92 -999 0.034826 0.20661 -0.578993
2003-04-11 08:27:10 51°39.46 3°19.94 -999 0.034826 0.20661 -0.578993
2003-04-11 08:27:16 51°39.48 3°19.97 -999 0.035242 0.2091 -0.545283
2003-04-11 08:27:20 51°39.49 3°19.99 -999 0.034514 0.204694 -0.578993
2003-04-11 08:27:26 51°39.5 3°20.02 -999 0.035866 0.212878 -0.578993
2003-04-11 08:27:30 51°39.51 3°20.04 -999 0.037425 0.22238 -0.578993
2003-04-11 08:27:36 51°39.53 3°20.07 -999 0.033371 0.197817 -0.578993
2003-04-11 08:27:40 51°39.54 3°20.09 -999 0.033787 0.200339 -0.578993
2003-04-11 08:27:46 51°39.55 3°20.12 -999 0.033787 0.200339 -0.578993
2003-04-11 08:27:50 51°39.56 3°20.14 -999 0.037217 0.221117 -0.612702
2003-04-11 08:27:56 51°39.58 3°20.17 -999 0.033579 0.199083 -0.578993
2003-04-11 08:28:00 51°39.59 3°20.19 -999 0.04044 0.240734 -0.578993
2003-04-11 08:28:06 51°39.61 3°20.23 -999 0.032124 0.190322 -0.578993
2003-04-11 08:28:10 51°39.62 3°20.25 -999 0.035242 0.209138 -0.612702
2003-04-11 08:28:16 51°39.63 3°20.28 -999 0.035242 0.209138 -0.612702
2003-04-11 08:28:20 51°39.64 3°20.3 -999 0.034826 0.206613 -0.612702
2003-04-11 08:28:26 51°39.66 3°20.33 -999 0.034203 0.202845 -0.612702
2003-04-11 08:28:30 51°39.67 3°20.35 -999 0.036489 0.216724 -0.578993
2003-04-11 08:28:36 51°39.68 3°20.38 -999 0.032955 0.195366 -0.646411
2003-04-11 08:28:40 51°39.69 3°20.4 -999 0.033059 0.196017 -0.612702
2003-04-11 08:28:46 51°39.71 3°20.43 -999 0.033059 0.196017 -0.612702
2003-04-11 08:28:50 51°39.72 3°20.45 -999 0.032332 0.191647 -0.612702
2003-04-11 08:28:56 51°39.74 3°20.48 -999 0.034514 0.204858 -0.612702
2003-04-11 08:29:00 51°39.75 3°20.5 -999 0.032436 0.192284 -0.646411
2003-04-11 08:29:06 51°39.76 3°20.53 -999 0.032436 0.192308 -0.612702
2003-04-11 08:29:10 51°39.77 3°20.56 -999 0.034826 0.20679 -0.578993
2003-04-11 08:29:16 51°39.79 3°20.59 -999 0.034826 0.20679 -0.578993
2003-04-11 08:29:20 51°39.8 3°20.61 -999 0.032228 0.191064 -0.578993
2003-04-11 08:29:26 51°39.81 3°20.64 -999 0.031188 0.184769 -0.612702
2003-04-11 08:29:30 51°39.82 3°20.66 -999 0.037321 0.221863 -0.612702
2003-04-11 08:29:36 51°39.84 3°20.69 -999 0.033683 0.199806 -0.612702
2003-04-11 08:29:40 51°39.85 3°20.71 -999 0.032124 0.190369 -0.612702
2003-04-11 08:29:46 51°39.87 3°20.74 -999 0.032124 0.190369 -0.612702
2003-04-11 08:29:50 51°39.88 3°20.76 -999 0.032747 0.194097 -0.612702
2003-04-11 08:29:56 51°39.89 3°20.79 -999 0.031708 0.187814 -0.612702
2003-04-11 08:30:00 51°39.9 3°20.81 -999 0.035034 0.207912 -0.612702
2003-04-11 08:30:06 51°39.92 3°20.84 -999 0.032955 0.195345 -0.612702
2003-04-11 08:30:10 51°39.93 3°20.86 -999 0.03098 0.183433 -0.578993
2003-04-11 08:30:16 51°39.94 3°20.89 -999 0.03098 0.183433 -0.578993
2003-04-11 08:30:20 51°39.95 3°20.91 -999 0.036593 0.217374 -0.612702
2003-04-11 08:30:26 51°39.97 3°20.94 -999 0.032643 0.193477 -0.612702
2003-04-11 08:30:30 51°39.98 3°20.96 -999 0.033579 0.199118 -0.612702
2003-04-11 08:30:36 51°40 3°20.99 -999 0.036074 0.214203 -0.612702
2003-04-11 08:30:40 51°40.01 3°21.01 -999 0.03098 0.183411 -0.612702
2003-04-11 08:30:46 51°40.02 3°21.05 -999 0.03098 0.183411 -0.612702
2003-04-11 08:30:50 51°40.03 3°21.07 -999 0.032851 0.194683 -0.612702
2003-04-11 08:30:56 51°40.05 3°21.1 -999 0.033059 0.195955 -0.612702
2003-04-11 08:31:00 51°40.06 3°21.12 -999 0.0315 0.186555 -0.612702
2003-04-11 08:31:06 51°40.07 3°21.15 -999 0.03202 0.189709 -0.612702
2003-04-11 08:31:10 51°40.08 3°21.17 -999 0.030149 0.178455 -0.578993
2003-04-11 08:31:16 51°40.1 3°21.2 -999 0.030149 0.178455 -0.578993
2003-04-11 08:31:20 51°40.11 3°21.22 -999 0.031396 0.185978 -0.578993
2003-04-11 08:31:26 51°40.13 3°21.25 -999 0.033475 0.198525 -0.612702
2003-04-11 08:31:30 51°40.14 3°21.27 -999 0.031604 0.187237 -0.612702
2003-04-11 08:31:36 51°40.15 3°21.3 -999 0.035554 0.21112 -0.612702
2003-04-11 08:31:40 51°40.16 3°21.32 -999 0.03202 0.189729 -0.578993
2003-04-11 08:31:46 51°40.18 3°21.35 -999 0.03202 0.189729 -0.578993
2003-04-11 08:31:50 51°40.19 3°21.37 -999 0.032643 0.193514 -0.578993
2003-04-11 08:31:56 51°40.2 3°21.4 -999 0.033891 0.201042 -0.578993
2003-04-11 08:32:00 51°40.21 3°21.42 -999 0.031084 0.184094 -0.545283
2003-04-11 08:32:06 51°40.23 3°21.45 -999 0.035346 0.209831 -0.612702
2003-04-11 08:32:10 51°40.24 3°21.47 -999 0.037737 0.224326 -0.578993
2003-04-11 08:32:16 51°40.25 3°21.5 -999 0.037737 0.224326 -0.578993
2003-04-11 08:32:20 51°40.27 3°21.52 -999 0.033995 0.201634 -0.578993
2003-04-11 08:32:26 51°40.28 3°21.55 -999 0.031604 0.187197 -0.578993
2003-04-11 08:32:30 51°40.29 3°21.57 -999 0.038257 0.227466 -0.545283
2003-04-11 08:32:36 51°40.31 3°21.6 -999 0.033683 0.199746 -0.545283
2003-04-11 08:32:40 51°40.32 3°21.62 -999 0.031292 0.185323 -0.578993
2003-04-11 08:32:46 51°40.33 3°21.66 -999 0.031292 0.185323 -0.578993
2003-04-11 08:32:50 51°40.34 3°21.68 -999 0.032332 0.191603 -0.578993
2003-04-11 08:32:56 51°40.36 3°21.71 -999 0.031812 0.188486 -0.545283
2003-04-11 08:33:00 51°40.37 3°21.73 -999 0.033475 0.19855 -0.545283
2003-04-11 08:33:06 51°40.38 3°21.76 -999 0.032124 0.190383 -0.578993
2003-04-11 08:33:10 51°40.39 3°21.78 -999 0.030669 0.181612 -0.578993
2003-04-11 08:33:16 51°40.41 3°21.81 -999 0.030669 0.181612 -0.578993
2003-04-11 08:33:20 51°40.42 3°21.83 -999 0.033787 0.200428 -0.511574
2003-04-11 08:33:26 51°40.43 3°21.86 -999 0.033891 0.201088 -0.545283
2003-04-11 08:33:30 51°40.44 3°21.88 -999 0.035034 0.208005 -0.511574
2003-04-11 08:33:36 51°40.46 3°21.91 -999 0.030045 0.177884 -0.545283
2003-04-11 08:33:40 51°40.47 3°21.93 -999 0.037425 0.222499 -0.545283
2003-04-11 08:33:46 51°40.49 3°21.96 -999 0.037425 0.222499 -0.545283
2003-04-11 08:33:50 51°40.5 3°21.98 -999 0.031812 0.188529 -0.511574
2003-04-11 08:33:56 51°40.51 3°22.01 -999 0.033995 0.201717 -0.545283
2003-04-11 08:34:00 51°40.52 3°22.03 -999 0.036489 0.216848 -0.545283
2003-04-11 08:34:06 51°40.54 3°22.06 -999 0.03098 0.18353 -0.545283
2003-04-11 08:34:10 51°40.55 3°22.08 -999 0.033891 0.201099 -0.511574
2003-04-11 08:34:16 51°40.56 3°22.12 -999 0.033891 0.201099 -0.511574
2003-04-11 08:34:20 51°40.57 3°22.14 -999 0.032228 0.191057 -0.511574
2003-04-11 08:34:26 51°40.59 3°22.17 -999 0.035034 0.208023 -0.511574
2003-04-11 08:34:30 51°40.6 3°22.19 -999 0.034722 0.206131 -0.511574
2003-04-11 08:34:36 51°40.61 3°22.22 -999 0.03202 0.1898 -0.511574
2003-04-11 08:34:40 51°40.62 3°22.24 -999 0.03441 0.204232 -0.477864
2003-04-11 08:34:46 51°40.64 3°22.27 -999 0.03441 0.204232 -0.477864
2003-04-11 08:34:50 51°40.65 3°22.29 -999 0.031604 0.18727 -0.477864
2003-04-11 08:34:56 51°40.67 3°22.32 -999 0.034307 0.203578 -0.477864
2003-04-11 08:35:00 51°40.68 3°22.34 -999 0.037841 0.225071 -0.477864
2003-04-11 08:35:06 51°40.69 3°22.37 -999 0.041791 0.249148 -0.477864
2003-04-11 08:35:10 51°40.7 3°22.39 -999 0.041791 0.249148 -0.477864
2003-04-11 08:35:16 51°40.72 3°22.42 -999 0.032747 0.194169 -0.477864
2003-04-11 08:35:20 51°40.73 3°22.44 -999 0.041271 0.246025 -0.477864
2003-04-11 08:35:26 51°40.74 3°22.47 -999 0.033163 0.196711 -0.511574
2003-04-11 08:35:30 51°40.75 3°22.49 -999 0.033371 0.197988 -0.511574
2003-04-11 08:35:36 51°40.77 3°22.53 -999 0.033579 0.199213 -0.477864
2003-04-11 08:35:40 51°40.78 3°22.55 -999 0.034203 0.202974 -0.511574
2003-04-11 08:35:46 51°40.79 3°22.58 -999 0.034203 0.202974 -0.511574
2003-04-11 08:35:50 51°40.8 3°22.6 -999 0.041063 0.244684 -0.477864
2003-04-11 08:35:56 51°40.82 3°22.63 -999 0.032643 0.193538 -0.511574
2003-04-11 08:36:00 51°40.83 3°22.65 -999 0.033163 0.196687 -0.511574
2003-04-11 08:36:06 51°40.84 3°22.68 -999 0.036489 0.216825 -0.511574
2003-04-11 08:36:10 51°40.86 3°22.7 -999 0.036074 0.214302 -0.545283
2003-04-11 08:36:16 51°40.87 3°22.73 -999 0.036074 0.214302 -0.545283
2003-04-11 08:36:20 51°40.88 3°22.75 -999 0.031916 0.189136 -0.511574
2003-04-11 08:36:26 51°40.9 3°22.78 -999 0.035138 0.208623 -0.545283
2003-04-11 08:36:30 51°40.91 3°22.8 -999 0.032436 0.192291 -0.545283
2003-04-11 08:36:36 51°40.92 3°22.83 -999 0.034203 0.202992 -0.578993
2003-04-11 08:36:40 51°40.93 3°22.86 -999 0.035554 0.211192 -0.545283
2003-04-11 08:36:46 51°40.95 3°22.89 -999 0.035554 0.211192 -0.545283
2003-04-11 08:36:50 51°40.96 3°22.91 -999 0.032539 0.192983 -0.545283
2003-04-11 08:36:56 51°40.97 3°22.94 -999 0.034411 0.204298 -0.545283
2003-04-11 08:37:00 51°40.98 3°22.96 -999 0.036282 0.215671 -0.578993
2003-04-11 08:37:06 51°41 3°22.99 -999 0.030669 0.181724 -0.578993
2003-04-11 08:37:10 51°41.01 3°23.01 -999 0.03597 0.213778 -0.578993
2003-04-11 08:37:16 51°41.03 3°23.04 -999 0.03597 0.213778 -0.578993
2003-04-11 08:37:20 51°41.04 3°23.06 -999 0.032436 0.192369 -0.578993
2003-04-11 08:37:26 51°41.05 3°23.09 -999 0.034203 0.203057 -0.578993
2003-04-11 08:37:30 51°41.06 3°23.11 -999 0.032124 0.19048 -0.612702
2003-04-11 08:37:36 51°41.08 3°23.14 -999 0.034203 0.203046 -0.578993
2003-04-11 08:37:40 51°41.09 3°23.17 -999 0.032228 0.191104 -0.612702
2003-04-11 08:37:46 51°41.1 3°23.2 -999 0.032228 0.191104 -0.612702
2003-04-11 08:37:50 51°41.11 3°23.22 -999 0.032539 0.192986 -0.578993
2003-04-11 08:37:56 51°41.13 3°23.25 -999 0.029421 0.174201 -0.612702
2003-04-11 08:38:00 51°41.14 3°23.27 -999 0.034514 0.204945 -0.612702
2003-04-11 08:38:06 51°41.15 3°23.3 -999 0.031916 0.18925 -0.612702
2003-04-11 08:38:10 51°41.16 3°23.32 -999 0.037321 0.222006 -0.612702
2003-04-11 08:38:16 51°41.18 3°23.35 -999 0.037321 0.222006 -0.612702
2003-04-11 08:38:20 51°41.19 3°23.37 -999 0.033579 0.199323 -0.578993
2003-04-11 08:38:26 51°41.21 3°23.4 -999 0.037009 0.220118 -0.612702
2003-04-11 08:38:30 51°41.22 3°23.42 -999 0.030669 0.181711 -0.612702
2003-04-11 08:38:36 51°41.23 3°23.45 -999 0.036697 0.218173 -0.612702
2003-04-11 08:38:40 51°41.24 3°23.47 -999 0.036697 0.218173 -0.612702
2003-04-11 08:38:46 51°41.26 3°23.5 -999 0.032228 0.191087 -0.646411
2003-04-11 08:38:50 51°41.27 3°23.53 -999 0.037321 0.221959 -0.578993
2003-04-11 08:38:56 51°41.28 3°23.56 -999 0.038984 0.232064 -0.578993
2003-04-11 08:39:00 51°41.29 3°23.58 -999 0.034307 0.203668 -0.612702
2003-04-11 08:39:06 51°41.31 3°23.61 -999 0.04283 0.255534 -0.612702
2003-04-11 08:39:10 51°41.32 3°23.63 -999 0.033267 0.197346 -0.578993
2003-04-11 08:39:16 51°41.34 3°23.66 -999 0.033267 0.197346 -0.578993
2003-04-11 08:39:20 51°41.35 3°23.68 -999 0.042623 0.254279 -0.578993
2003-04-11 08:39:26 51°41.36 3°23.71 -999 0.039088 0.232747 -0.612702
2003-04-11 08:39:30 51°41.37 3°23.73 -999 0.040336 0.240312 -0.612702
2003-04-11 08:39:36 51°41.39 3°23.76 -999 0.041999 0.250432 -0.545283
2003-04-11 08:39:40 51°41.4 3°23.78 -999 0.032643 0.193552 -0.545283
2003-04-11 08:39:46 51°41.42 3°23.81 -999 0.032643 0.193552 -0.545283
2003-04-11 08:39:50 51°41.43 3°23.83 -999 0.03545 0.210509 -0.578993
2003-04-11 08:39:56 51°41.44 3°23.86 -999 0.032747 0.194145 -0.578993
2003-04-11 08:40:00 51°41.45 3°23.88 -999 0.045533 0.272074 -0.477864
2003-04-11 08:40:06 51°41.47 3°23.91 -999 0.035658 0.211841 -0.511574
2003-04-11 08:40:10 51°41.48 3°23.93 -999 0.038464 0.228886 -0.477864
2003-04-11 08:40:16 51°41.5 3°23.96 -999 0.038464 0.228886 -0.477864
2003-04-11 08:40:20 51°41.51 3°23.98 -999 0.032747 0.194169 -0.477864
2003-04-11 08:40:26 51°41.52 3°24.01 -999 0.041271 0.245976 -0.511574
2003-04-11 08:40:30 51°41.53 3°24.03 -999 0.034826 0.20676 -0.477864
2003-04-11 08:40:36 51°41.55 3°24.06 -999 0.036178 0.215075 -0.477864
2003-04-11 08:40:40 51°41.56 3°24.08 -999 0.036905 0.219467 -0.511574
2003-04-11 08:40:46 51°41.58 3°24.11 -999 0.036905 0.219467 -0.511574
2003-04-11 08:40:50 51°41.59 3°24.13 -999 0.042207 0.251776 -0.511574
2003-04-11 08:40:56 51°41.6 3°24.16 -999 0.034307 0.203668 -0.511574
2003-04-11 08:41:00 51°41.61 3°24.18 -999 0.035138 0.20869 -0.545283
2003-04-11 08:41:06 51°41.63 3°24.21 -999 0.039296 0.233947 -0.545283
2003-04-11 08:41:10 51°41.64 3°24.23 -999 0.03202 0.189823 -0.545283
2003-04-11 08:41:16 51°41.66 3°24.26 -999 0.03202 0.189823 -0.545283
2003-04-11 08:41:20 51°41.67 3°24.28 -999 0.041167 0.245363 -0.545283
2003-04-11 08:41:26 51°41.68 3°24.32 -999 0.033267 0.197381 -0.578993
2003-04-11 08:41:30 51°41.69 3°24.34 -999 0.043142 0.257499 -0.578993
2003-04-11 08:41:36 51°41.71 3°24.37 -999 0.036801 0.218882 -0.578993
2003-04-11 08:41:40 51°41.72 3°24.39 -999 0.052707 0.31656 -0.612702
2003-04-11 08:41:46 51°41.74 3°24.42 -999 0.052707 0.31656 -0.612702
2003-04-11 08:41:50 51°41.75 3°24.44 -999 0.036178 0.21509 -0.612702
2003-04-11 08:41:56 51°41.76 3°24.47 -999 0.043038 0.256904 -0.612702
2003-04-11 08:42:00 51°41.77 3°24.49 -999 0.03545 0.210618 -0.612702
2003-04-11 08:42:06 51°41.79 3°24.52 -999 0.033683 0.199898 -0.612702
2003-04-11 08:42:10 51°41.8 3°24.54 -999 0.033683 0.199898 -0.612702
2003-04-11 08:42:16 51°41.82 3°24.57 -999 0.036282 0.215613 -0.612702
2003-04-11 08:42:20 51°41.83 3°24.59 -999 0.03202 0.189796 -0.612702
2003-04-11 08:42:26 51°41.84 3°24.62 -999 0.032539 0.192932 -0.612702
2003-04-11 08:42:30 51°41.85 3°24.64 -999 0.050316 0.301669 -0.578993
2003-04-11 08:42:36 51°41.87 3°24.67 -999 0.038568 0.229647 -0.578993
2003-04-11 08:42:40 51°41.88 3°24.69 -999 0.034307 0.203715 -0.612702
2003-04-11 08:42:46 51°41.89 3°24.72 -999 0.034307 0.203715 -0.612702
2003-04-11 08:42:50 51°41.91 3°24.74 -999 0.045845 0.274088 -0.578993
2003-04-11 08:42:56 51°41.92 3°24.77 -999 0.032851 0.194859 -0.578993
2003-04-11 08:43:00 51°41.93 3°24.79 -999 0.040959 0.244116 -0.578993
2003-04-11 08:43:06 51°41.95 3°24.82 -999 0.032643 0.193638 -0.578993
2003-04-11 08:43:10 51°41.96 3°24.84 -999 0.049276 0.295248 -0.578993
2003-04-11 08:43:16 51°41.97 3°24.87 -999 0.049276 0.295248 -0.578993
2003-04-11 08:43:20 51°41.98 3°24.89 -999 0.038049 0.226473 -0.578993
2003-04-11 08:43:26 51°42 3°24.92 -999 0.04044 0.241025 -0.545283
2003-04-11 08:43:30 51°42.01 3°24.94 -999 0.034203 0.203068 -0.545283
2003-04-11 08:43:36 51°42.03 3°24.97 -999 0.037425 0.222614 -0.578993
2003-04-11 08:43:40 51°42.04 3°24.99 -999 0.036905 0.219455 -0.578993
2003-04-11 08:43:46 51°42.05 3°25.03 -999 0.036905 0.219455 -0.578993
2003-04-11 08:43:50 51°42.06 3°25.05 -999 0.033891 0.201174 -0.545283
2003-04-11 08:43:56 51°42.08 3°25.08 -999 0.035034 0.20812 -0.545283
2003-04-11 08:44:00 51°42.09 3°25.1 -999 0.036178 0.215078 -0.511574
2003-04-11 08:44:06 51°42.11 3°25.13 -999 0.033683 0.199969 -0.511574
2003-04-11 08:44:10 51°42.12 3°25.15 -999 0.032955 0.19557 -0.511574
2003-04-11 08:44:16 51°42.13 3°25.18 -999 0.032955 0.19557 -0.511574
2003-04-11 08:44:20 51°42.14 3°25.2 -999 0.043974 0.262704 -0.477864
2003-04-11 08:44:26 51°42.16 3°25.23 -999 0.034411 0.204407 -0.477864
2003-04-11 08:44:30 51°42.17 3°25.25 -999 0.03493 0.207538 -0.477864
2003-04-11 08:44:36 51°42.19 3°25.28 -999 0.034307 0.203755 -0.477864
2003-04-11 08:44:40 51°42.2 3°25.3 -999 0.03493 0.207538 -0.477864
2003-04-11 08:44:46 51°42.21 3°25.33 -999 0.03493 0.207538 -0.477864
2003-04-11 08:44:50 51°42.22 3°25.35 -999 0.034307 0.203784 -0.444155
2003-04-11 08:44:56 51°42.24 3°25.38 -999 0.03493 0.20756 -0.477864
2003-04-11 08:45:00 51°42.25 3°25.4 -999 0.034722 0.206307 -0.444155
2003-04-11 08:45:06 51°42.27 3°25.43 -999 0.033371 0.198115 -0.444155
2003-04-11 08:45:10 51°42.28 3°25.45 -999 0.035762 0.212608 -0.477864
2003-04-11 08:45:16 51°42.29 3°25.48 -999 0.035762 0.212608 -0.477864
2003-04-11 08:45:20 51°42.3 3°25.5 -999 0.036178 0.215155 -0.444155
2003-04-11 08:45:26 51°42.32 3°25.53 -999 0.035658 0.212003 -0.477864
2003-04-11 08:45:30 51°42.33 3°25.55 -999 0.032332 0.191843 -0.444155
2003-04-11 08:45:36 51°42.35 3°25.58 -999 0.034099 0.202532 -0.444155
2003-04-11 08:45:40 51°42.36 3°25.61 -999 0.034618 0.205692 -0.477864
2003-04-11 08:45:46 51°42.37 3°25.64 -999 0.034618 0.205692 -0.477864
2003-04-11 08:45:50 51°42.38 3°25.66 -999 0.032436 0.192485 -0.477864
2003-04-11 08:45:56 51°42.4 3°25.69 -999 0.039816 0.237337 -0.477864
2003-04-11 08:46:00 51°42.41 3°25.71 -999 0.033475 0.198789 -0.477864
2003-04-11 08:46:06 51°42.43 3°25.74 -999 0.033995 0.201935 -0.477864
2003-04-11 08:46:10 51°42.44 3°25.76 -999 0.033163 0.196907 -0.511574
2003-04-11 08:46:16 51°42.45 3°25.79 -999 0.033163 0.196907 -0.511574
2003-04-11 08:46:20 51°42.46 3°25.81 -999 0.033059 0.196271 -0.511574
2003-04-11 08:46:26 51°42.48 3°25.84 -999 0.034099 0.20255 -0.511574
2003-04-11 08:46:30 51°42.49 3°25.86 -999 0.032539 0.193092 -0.511574
2003-04-11 08:46:36 51°42.51 3°25.89 -999 0.038464 0.22903 -0.511574
2003-04-11 08:46:40 51°42.52 3°25.91 -999 0.033267 0.197476 -0.545283
2003-04-11 08:46:46 51°42.53 3°25.94 -999 0.033267 0.197476 -0.545283
2003-04-11 08:46:50 51°42.54 3°25.96 -999 0.03098 0.183659 -0.545283
2003-04-11 08:46:56 51°42.56 3°25.99 -999 0.036282 0.215767 -0.511574
2003-04-11 08:47:00 51°42.57 3°26.01 -999 0.042311 0.252586 -0.545283
2003-04-11 08:47:06 51°42.59 3°26.04 -999 0.035346 0.210122 -0.578993
2003-04-11 08:47:10 51°42.6 3°26.06 -999 0.038153 0.227192 -0.578993
2003-04-11 08:47:16 51°42.61 3°26.09 -999 0.038153 0.227192 -0.578993
2003-04-11 08:47:20 51°42.62 3°26.12 -999 0.031812 0.188706 -0.545283
2003-04-11 08:47:26 51°42.64 3°26.15 -999 0.037425 0.222754 -0.545283
2003-04-11 08:47:30 51°42.65 3°26.17 -999 0.033475 0.198765 -0.612702
2003-04-11 08:47:36 51°42.66 3°26.2 -999 0.034411 0.204447 -0.612702
2003-04-11 08:47:40 51°42.68 3°26.22 -999 0.032332 0.191877 -0.578993
2003-04-11 08:47:46 51°42.69 3°26.25 -999 0.032332 0.191877 -0.578993
2003-04-11 08:47:50 51°42.7 3°26.27 -999 0.0315 0.186835 -0.578993
2003-04-11 08:47:56 51°42.72 3°26.3 -999 0.030565 0.181181 -0.578993
2003-04-11 08:48:00 51°42.73 3°26.32 -999 0.031604 0.187452 -0.612702
2003-04-11 08:48:06 51°42.74 3°26.35 -999 0.032228 0.191236 -0.612702
2003-04-11 08:48:10 51°42.75 3°26.37 -999 0.031708 0.188139 -0.612702
2003-04-11 08:48:16 51°42.77 3°26.4 -999 0.031708 0.188139 -0.612702
2003-04-11 08:48:20 51°42.78 3°26.42 -999 0.033579 0.199457 -0.612702
2003-04-11 08:48:26 51°42.8 3°26.45 -999 0.032851 0.195045 -0.578993
2003-04-11 08:48:30 51°42.81 3°26.47 -999 0.033995 0.201957 -0.612702
2003-04-11 08:48:36 51°42.82 3°26.5 -999 0.03202 0.190031 -0.612702
2003-04-11 08:48:40 51°42.83 3°26.52 -999 0.038464 0.229124 -0.578993
2003-04-11 08:48:46 51°42.85 3°26.55 -999 0.038464 0.229124 -0.578993
2003-04-11 08:48:50 51°42.86 3°26.57 -999 0.036074 0.214543 -0.612702
2003-04-11 08:48:56 51°42.88 3°26.61 -999 0.032747 0.194379 -0.612702
2003-04-11 08:49:00 51°42.89 3°26.63 -999 0.03545 0.210727 -0.646411
2003-04-11 08:49:06 51°42.9 3°26.66 -999 0.032851 0.194969 -0.612702
2003-04-11 08:49:10 51°42.91 3°26.68 -999 0.033683 0.199994 -0.612702
2003-04-11 08:49:16 51°42.93 3°26.71 -999 0.033683 0.199994 -0.612702
2003-04-11 08:49:20 51°42.94 3°26.73 -999 0.03545 0.210697 -0.646411
2003-04-11 08:49:26 51°42.95 3°26.76 -999 0.031916 0.18931 -0.612702
2003-04-11 08:49:30 51°42.97 3°26.78 -999 0.032539 0.193092 -0.612702
2003-04-11 08:49:36 51°42.98 3°26.81 -999 0.033371 0.198122 -0.612702
2003-04-11 08:49:40 51°42.99 3°26.83 -999 0.032643 0.193741 -0.578993
2003-04-11 08:49:46 51°43.01 3°26.86 -999 0.032643 0.193741 -0.578993
2003-04-11 08:49:50 51°43.02 3°26.88 -999 0.036178 0.215155 -0.612702
2003-04-11 08:49:56 51°43.03 3°26.91 -999 0.031188 0.184948 -0.646411
2003-04-11 08:50:00 51°43.04 3°26.93 -999 0.038568 0.229737 -0.646411
2003-04-11 08:50:06 51°43.06 3°26.97 -999 0.041271 0.246233 -0.612702
2003-04-11 08:50:10 51°43.07 3°26.99 -999 0.046573 0.278819 -0.612702
2003-04-11 08:50:16 51°43.09 3°27.02 -999 0.046573 0.278819 -0.612702
2003-04-11 08:50:20 51°43.1 3°27.04 -999 0.042311 0.252563 -0.612702
2003-04-11 08:50:26 51°43.11 3°27.07 -999 0.045221 0.270502 -0.612702
2003-04-11 08:50:30 51°43.12 3°27.09 -999 0.043766 0.261566 -0.612702
2003-04-11 08:50:36 51°43.14 3°27.12 -999 0.037217 0.221485 -0.612702
2003-04-11 08:50:40 51°43.15 3°27.14 -999 0.039504 0.235354 -0.612702
2003-04-11 08:50:46 51°43.17 3°27.17 -999 0.039504 0.235354 -0.612702
2003-04-11 08:50:50 51°43.18 3°27.19 -999 0.041999 0.250541 -0.612702
2003-04-11 08:50:56 51°43.19 3°27.22 -999 0.037633 0.223907 -0.578993
2003-04-11 08:51:00 51°43.2 3°27.24 -999 0.041271 0.246105 -0.578993
2003-04-11 08:51:06 51°43.22 3°27.27 -999 0.032539 0.193031 -0.578993
2003-04-11 08:51:10 51°43.23 3°27.29 -999 0.042415 0.253135 -0.578993
2003-04-11 08:51:16 51°43.25 3°27.32 -999 0.042415 0.253135 -0.578993
2003-04-11 08:51:20 51°43.26 3°27.34 -999 0.037529 0.223311 -0.545283
2003-04-11 08:51:26 51°43.27 3°27.38 -999 0.036593 0.217604 -0.578993
2003-04-11 08:51:30 51°43.28 3°27.4 -999 0.038672 0.230313 -0.511574
2003-04-11 08:51:36 51°43.3 3°27.43 -999 0.037113 0.220829 -0.511574
2003-04-11 08:51:40 51°43.31 3°27.45 -999 0.03545 0.210787 -0.511574
2003-04-11 08:51:46 51°43.32 3°27.48 -999 0.03545 0.210787 -0.511574
2003-04-11 08:51:50 51°43.34 3°27.5 -999 0.037009 0.220237 -0.511574
2003-04-11 08:51:56 51°43.35 3°27.53 -999 0.03597 0.213904 -0.511574
2003-04-11 08:52:00 51°43.36 3°27.55 -999 0.048964 0.293517 -0.444155
2003-04-11 08:52:06 51°43.38 3°27.58 -999 0.034826 0.207018 -0.444155
2003-04-11 08:52:10 51°43.38 3°27.61 -999 0.090453 0.55445 -0.477864
2003-04-11 08:52:16 51°43.4 3°27.64 -999 0.090453 0.55445 -0.477864
2003-04-11 08:52:20 51°43.41 3°27.66 -999 0.04044 0.241203 -0.477864
2003-04-11 08:52:26 51°43.42 3°27.69 -999 0.044494 0.266003 -0.511574
2003-04-11 08:52:30 51°43.43 3°27.72 -999 0.061544 0.37178 -0.545283
2003-04-11 08:52:36 51°43.44 3°27.75 -999 0.036697 0.218462 -0.511574
2003-04-11 08:52:40 51°43.45 3°27.77 -999 0.044598 0.266806 -0.545283
2003-04-11 08:52:46 51°43.47 3°27.8 -999 0.044598 0.266806 -0.545283
2003-04-11 08:52:50 51°43.48 3°27.83 -999 0.037321 0.222364 -0.545283
2003-04-11 08:52:56 51°43.49 3°27.86 -999 0.056969 0.343467 -0.545283
2003-04-11 08:53:00 51°43.5 3°27.88 -999 0.039816 0.237555 -0.578993
2003-04-11 08:53:06 51°43.51 3°27.91 -999 0.03545 0.210843 -0.578993
2003-04-11 08:53:10 51°43.52 3°27.94 -999 0.038153 0.227249 -0.612702
2003-04-11 08:53:16 51°43.54 3°27.97 -999 0.038153 0.227249 -0.612702
2003-04-11 08:53:20 51°43.55 3°27.99 -999 0.035658 0.21206 -0.612702
2003-04-11 08:53:26 51°43.56 3°28.03 -999 0.042623 0.254546 -0.646411
2003-04-11 08:53:30 51°43.57 3°28.05 -999 0.0394 0.234906 -0.612702
2003-04-11 08:53:36 51°43.58 3°28.08 -999 0.041999 0.250735 -0.612702
2003-04-11 08:53:40 51°43.59 3°28.1 -999 0.036489 0.217112 -0.646411
2003-04-11 08:53:46 51°43.6 3°28.14 -999 0.036489 0.217112 -0.646411
2003-04-11 08:53:50 51°43.61 3°28.16 -999 0.038257 0.227837 -0.646411
2003-04-11 08:53:56 51°43.63 3°28.19 -999 0.035762 0.212642 -0.612702
2003-04-11 08:54:00 51°43.64 3°28.21 -999 0.03493 0.207615 -0.646411
2003-04-11 08:54:06 51°43.65 3°28.25 -999 0.035242 0.209563 -0.646411
2003-04-11 08:54:10 51°43.66 3°28.27 -999 0.04283 0.255908 -0.612702
2003-04-11 08:54:16 51°43.67 3°28.3 -999 0.04283 0.255908 -0.612702
2003-04-11 08:54:20 51°43.68 3°28.32 -999 0.034826 0.207103 -0.612702
2003-04-11 08:54:26 51°43.69 3°28.36 -999 0.065079 0.39424 -0.612702
2003-04-11 08:54:30 51°43.7 3°28.38 -999 0.042311 0.252919 -0.612702
2003-04-11 08:54:36 51°43.72 3°28.41 -999 0.039712 0.236967 -0.646411
2003-04-11 08:54:40 51°43.73 3°28.43 -999 0.040855 0.243845 -0.646411
2003-04-11 08:54:46 51°43.74 3°28.47 -999 0.040855 0.243845 -0.646411
2003-04-11 08:54:50 51°43.75 3°28.49 -999 0.038049 0.226603 -0.612702
2003-04-11 08:54:56 51°43.76 3°28.52 -999 0.03597 0.213954 -0.612702
2003-04-11 08:55:00 51°43.77 3°28.54 -999 0.037841 0.225337 -0.612702
2003-04-11 08:55:06 51°43.79 3°28.58 -999 0.039816 0.237419 -0.612702
2003-04-11 08:55:10 51°43.79 3°28.6 -999 0.035762 0.212756 -0.612702
2003-04-11 08:55:16 51°43.81 3°28.63 -999 0.035762 0.212756 -0.612702
2003-04-11 08:55:20 51°43.82 3°28.65 -999 0.038153 0.227359 -0.578993
2003-04-11 08:55:26 51°43.83 3°28.69 -999 0.036074 0.214743 -0.578993
2003-04-11 08:55:30 51°43.84 3°28.71 -999 0.032955 0.195806 -0.578993
2003-04-11 08:55:36 51°43.85 3°28.74 -999 0.041167 0.245851 -0.578993
2003-04-11 08:55:40 51°43.86 3°28.76 -999 0.037113 0.221059 -0.545283
2003-04-11 08:55:46 51°43.88 3°28.8 -999 0.037113 0.221059 -0.545283
2003-04-11 08:55:50 51°43.89 3°28.82 -999 0.049692 0.298318 -0.545283
2003-04-11 08:55:56 51°43.9 3°28.85 -999 0.039088 0.233103 -0.511574
2003-04-11 08:56:00 51°43.91 3°28.87 -999 0.041063 0.245179 -0.477864
2003-04-11 08:56:06 51°43.92 3°28.91 -999 0.05593 0.336905 -0.477864
2003-04-11 08:56:10 51°43.93 3°28.93 -999 0.043142 0.257899 -0.477864
2003-04-11 08:56:16 51°43.94 3°28.96 -999 0.043142 0.257899 -0.477864
2003-04-11 08:56:20 51°43.95 3°28.99 -999 0.115521 0.715582 -0.578993
2003-04-11 08:56:26 51°43.97 3°29.02 -999 0.04782 0.286705 -0.612702
2003-04-11 08:56:30 51°43.98 3°29.04 -999 0.067367 0.408365 -0.646411
2003-04-11 08:56:36 51°43.99 3°29.08 -999 0.051459 0.309083 -0.612702
2003-04-11 08:56:40 51°44 3°29.1 -999 0.04335 0.25941 -0.646411
2003-04-11 08:56:46 51°44.01 3°29.13 -999 0.04335 0.25941 -0.646411
2003-04-11 08:56:50 51°44.02 3°29.16 -999 0.04335 0.259438 -0.646411
2003-04-11 08:56:56 51°44.03 3°29.19 -999 0.069239 0.420375 -0.646411
2003-04-11 08:57:00 51°44.04 3°29.21 -999 0.040024 0.238865 -0.612702
2003-04-11 08:57:06 51°44.05 3°29.25 -999 0.060192 0.363622 -0.612702
2003-04-11 08:57:10 51°44.06 3°29.27 -999 0.038153 0.227326 -0.646411
2003-04-11 08:57:16 51°44.07 3°29.31 -999 0.038153 0.227326 -0.646411
2003-04-11 08:57:20 51°44.08 3°29.33 -999 0.051251 0.307926 -0.646411
2003-04-11 08:57:26 51°44.09 3°29.36 -999 0.038776 0.2312 -0.612702
2003-04-11 08:57:30 51°44.1 3°29.39 -999 0.039088 0.233103 -0.612702
2003-04-11 08:57:36 51°44.11 3°29.42 -999 0.045637 0.273237 -0.612702
2003-04-11 08:57:40 51°44.12 3°29.44 -999 0.039504 0.235722 -0.612702
2003-04-11 08:57:46 51°44.13 3°29.48 -999 0.039504 0.235722 -0.612702
2003-04-11 08:57:50 51°44.14 3°29.5 -999 0.056346 0.339609 -0.578993
2003-04-11 08:57:56 51°44.16 3°29.54 -999 0.041999 0.250917 -0.612702
2003-04-11 08:58:00 51°44.16 3°29.56 -999 0.038257 0.228025 -0.612702
2003-04-11 08:58:06 51°44.18 3°29.59 -999 0.037113 0.221055 -0.612702
2003-04-11 08:58:10 51°44.18 3°29.62 -999 0.037113 0.221059 -0.578993
2003-04-11 08:58:16 51°44.2 3°29.65 -999 0.037113 0.221059 -0.578993
2003-04-11 08:58:20 51°44.2 3°29.68 -999 0.036801 0.219161 -0.545283
2003-04-11 08:58:26 51°44.22 3°29.71 -999 0.036801 0.219172 -0.545283
2003-04-11 08:58:30 51°44.23 3°29.73 -999 0.03254 0.193311 -0.578993
2003-04-11 08:58:36 51°44.24 3°29.77 -999 0.05489 0.330559 -0.511574
2003-04-11 08:58:40 51°44.25 3°29.79 -999 0.04335 0.259292 -0.511574
2003-04-11 08:58:46 51°44.26 3°29.83 -999 0.04335 0.259292 -0.511574
2003-04-11 08:58:50 51°44.27 3°29.85 -999 0.052395 0.315096 -0.511574
2003-04-11 08:58:56 51°44.28 3°29.88 -999 0.042103 0.251626 -0.511574
2003-04-11 08:59:00 51°44.29 3°29.91 -999 0.03992 0.238233 -0.511574
2003-04-11 08:59:06 51°44.3 3°29.94 -999 0.036489 0.217279 -0.511574
2003-04-11 08:59:10 51°44.31 3°29.96 -999 0.036489 0.217279 -0.511574
2003-04-11 08:59:16 51°44.32 3°30 -999 0.036489 0.217279 -0.511574
2003-04-11 08:59:20 51°44.33 3°30.02 -999 0.042623 0.254758 -0.511574
2003-04-11 08:59:26 51°44.34 3°30.06 -999 0.044078 0.263718 -0.545283
2003-04-11 08:59:30 51°44.35 3°30.08 -999 0.034618 0.205948 -0.545283
2003-04-11 08:59:36 51°44.37 3°30.11 -999 0.03597 0.214187 -0.545283
2003-04-11 08:59:40 51°44.37 3°30.14 -999 0.034411 0.204698 -0.545283
2003-04-11 08:59:46 51°44.39 3°30.17 -999 0.034411 0.204698 -0.545283
2003-04-11 08:59:50 51°44.4 3°30.19 -999 0.039608 0.236502 -0.578993
2003-04-11 08:59:56 51°44.41 3°30.23 -999 0.041063 0.245467 -0.578993
2003-04-11 09:00:00 51°44.42 3°30.25 -999 0.036074 0.215012 -0.578993
2003-04-11 09:00:06 51°44.43 3°30.28 -999 0.035658 0.212417 -0.578993
2003-04-11 09:00:10 51°44.44 3°30.31 -999 0.045429 0.272235 -0.612702
2003-04-11 09:00:16 51°44.45 3°30.34 -999 0.045429 0.272235 -0.612702
2003-04-11 09:00:20 51°44.46 3°30.36 -999 0.0394 0.235189 -0.612702
2003-04-11 09:00:26 51°44.47 3°30.4 -999 0.036074 0.214881 -0.578993
2003-04-11 09:00:30 51°44.48 3°30.42 -999 0.037945 0.226222 -0.612702
2003-04-11 09:00:36 51°44.49 3°30.46 -999 0.038361 0.228758 -0.612702
2003-04-11 09:00:40 51°44.5 3°30.48 -999 0.040336 0.24078 -0.612702
2003-04-11 09:00:46 51°44.51 3°30.51 -999 0.040336 0.24078 -0.612702
2003-04-11 09:00:50 51°44.52 3°30.54 -999 0.034307 0.204024 -0.612702
2003-04-11 09:00:56 51°44.54 3°30.57 -999 0.042934 0.256689 -0.612702
2003-04-11 09:01:00 51°44.54 3°30.6 -999 0.033787 0.20088 -0.612702
2003-04-11 09:01:06 51°44.56 3°30.63 -999 0.034514 0.205296 -0.612702
2003-04-11 09:01:10 51°44.57 3°30.65 -999 0.037217 0.221751 -0.612702
2003-04-11 09:01:16 51°44.58 3°30.69 -999 0.037217 0.221751 -0.612702
2003-04-11 09:01:20 51°44.59 3°30.71 -999 0.035554 0.211629 -0.646411
2003-04-11 09:01:26 51°44.6 3°30.75 -999 0.031812 0.188946 -0.646411
2003-04-11 09:01:30 51°44.61 3°30.77 -999 0.033683 0.2003 -0.646411
2003-04-11 09:01:36 51°44.62 3°30.8 -999 0.036489 0.21738 -0.612702
2003-04-11 09:01:40 51°44.63 3°30.83 -999 0.034826 0.207273 -0.646411
2003-04-11 09:01:46 51°44.64 3°30.86 -999 0.034826 0.207273 -0.646411
2003-04-11 09:01:50 51°44.65 3°30.89 -999 0.043038 0.257443 -0.612702
2003-04-11 09:01:56 51°44.66 3°30.92 -999 0.037113 0.221198 -0.612702
2003-04-11 09:02:00 51°44.67 3°30.94 -999 0.034826 0.207251 -0.612702
2003-04-11 09:02:06 51°44.68 3°30.98 -999 0.033891 0.201564 -0.612702
2003-04-11 09:02:10 51°44.69 3°31 -999 0.036801 0.219223 -0.646411
2003-04-11 09:02:16 51°44.71 3°31.04 -999 0.036801 0.219223 -0.646411
2003-04-11 09:02:20 51°44.71 3°31.06 -999 0.036074 0.214769 -0.612702
2003-04-11 09:02:26 51°44.73 3°31.1 -999 0.034099 0.202756 -0.612702
2003-04-11 09:02:30 51°44.74 3°31.12 -999 0.032332 0.192061 -0.612702
2003-04-11 09:02:36 51°44.75 3°31.16 -999 0.033163 0.197116 -0.612702
2003-04-11 09:02:40 51°44.76 3°31.18 -999 0.032643 0.193985 -0.612702
2003-04-11 09:02:46 51°44.77 3°31.21 -999 0.032643 0.193985 -0.612702
2003-04-11 09:02:50 51°44.78 3°31.24 -999 0.032851 0.195246 -0.612702
2003-04-11 09:02:56 51°44.79 3°31.27 -999 0.036697 0.21861 -0.612702
2003-04-11 09:03:00 51°44.8 3°31.3 -999 0.03254 0.19339 -0.646411
2003-04-11 09:03:06 51°44.81 3°31.33 -999 0.040647 0.242779 -0.646411
2003-04-11 09:03:10 51°44.82 3°31.35 -999 0.033059 0.196564 -0.612702
2003-04-11 09:03:16 51°44.84 3°31.39 -999 0.033059 0.196564 -0.612702
2003-04-11 09:03:20 51°44.84 3°31.41 -999 0.033995 0.20223 -0.578993
2003-04-11 09:03:26 51°44.86 3°31.45 -999 0.036282 0.21613 -0.578993
2003-04-11 09:03:30 51°44.87 3°31.47 -999 0.032228 0.191517 -0.612702
2003-04-11 09:03:36 51°44.88 3°31.51 -999 0.032436 0.192771 -0.612702
2003-04-11 09:03:40 51°44.89 3°31.53 -999 0.034826 0.207251 -0.612702
2003-04-11 09:03:46 51°44.9 3°31.56 -999 0.034826 0.207251 -0.612702
2003-04-11 09:03:50 51°44.91 3°31.59 -999 0.035346 0.210434 -0.612702
2003-04-11 09:03:56 51°44.92 3°31.62 -999 0.032643 0.194029 -0.612702
2003-04-11 09:04:00 51°44.93 3°31.65 -999 0.034514 0.205384 -0.612702
2003-04-11 09:04:06 51°44.94 3°31.68 -999 0.04283 0.256223 -0.578993
2003-04-11 09:04:10 51°44.95 3°31.7 -999 0.040336 0.240928 -0.578993
2003-04-11 09:04:16 51°44.96 3°31.74 -999 0.040336 0.240928 -0.578993
2003-04-11 09:04:20 51°44.97 3°31.76 -999 0.034307 0.204162 -0.578993
2003-04-11 09:04:26 51°44.99 3°31.8 -999 0.040544 0.242183 -0.578993
2003-04-11 09:04:30 51°44.99 3°31.82 -999 0.03493 0.207971 -0.578993
2003-04-11 09:04:36 51°45.01 3°31.86 -999 0.045741 0.27412 -0.545283
2003-04-11 09:04:40 51°45.01 3°31.88 -999 0.032643 0.194057 -0.578993
2003-04-11 09:04:46 51°45.03 3°31.91 -999 0.032643 0.194057 -0.578993
2003-04-11 09:04:50 51°45.04 3°31.94 -999 0.038672 0.23069 -0.545283
2003-04-11 09:04:56 51°45.05 3°31.97 -999 0.032851 0.195263 -0.545283
2003-04-11 09:05:00 51°45.06 3°32 -999 0.037321 0.222396 -0.545283
2003-04-11 09:05:06 51°45.07 3°32.03 -999 0.038153 0.227465 -0.511574
2003-04-11 09:05:10 51°45.08 3°32.05 -999 0.038153 0.227477 -0.477864
2003-04-11 09:05:16 51°45.09 3°32.09 -999 0.038153 0.227477 -0.477864
2003-04-11 09:05:20 51°45.1 3°32.11 -999 0.034203 0.203488 -0.511574
2003-04-11 09:05:26 51°45.11 3°32.15 -999 0.050004 0.3004 -0.477864
2003-04-11 09:05:30 51°45.12 3°32.17 -999 0.042623 0.254984 -0.511574
2003-04-11 09:05:36 51°45.13 3°32.21 -999 0.059881 0.361841 -0.511574
2003-04-11 09:05:40 51°45.14 3°32.23 -999 0.036386 0.216779 -0.511574
2003-04-11 09:05:46 51°45.15 3°32.26 -999 0.036386 0.216779 -0.511574
2003-04-11 09:05:50 51°45.16 3°32.29 -999 0.036074 0.21485 -0.511574
2003-04-11 09:05:56 51°45.17 3°32.32 -999 0.038568 0.230027 -0.511574
2003-04-11 09:06:00 51°45.18 3°32.35 -999 0.037945 0.226234 -0.545283
2003-04-11 09:06:06 51°45.2 3°32.38 -999 0.035554 0.211675 -0.545283
2003-04-11 09:06:10 51°45.2 3°32.41 -999 0.037113 0.22119 -0.545283
2003-04-11 09:06:16 51°45.22 3°32.44 -999 0.037113 0.22119 -0.545283
2003-04-11 09:06:20 51°45.22 3°32.46 -999 0.035866 0.213593 -0.511574
2003-04-11 09:06:26 51°45.24 3°32.5 -999 0.038257 0.228194 -0.545283
2003-04-11 09:06:30 51°45.24 3°32.52 -999 0.037633 0.224357 -0.545283
2003-04-11 09:06:36 51°45.26 3°32.56 -999 0.039088 0.23341 -0.612702
2003-04-11 09:06:40 51°45.27 3°32.58 -999 0.046885 0.28124 -0.612702
2003-04-11 09:06:46 51°45.28 3°32.62 -999 0.046885 0.28124 -0.612702
2003-04-11 09:06:50 51°45.29 3°32.64 -999 0.037113 0.221269 -0.612702
2003-04-11 09:06:56 51°45.3 3°32.67 -999 0.034203 0.20356 -0.612702
2003-04-11 09:07:00 51°45.31 3°32.7 -999 0.035866 0.213685 -0.612702
2003-04-11 09:07:06 51°45.32 3°32.73 -999 0.037737 0.225205 -0.646411
2003-04-11 09:07:10 51°45.33 3°32.76 -999 0.033579 0.199944 -0.612702
2003-04-11 09:07:16 51°45.34 3°32.79 -999 0.033579 0.199944 -0.612702
2003-04-11 09:07:20 51°45.35 3°32.81 -999 0.031708 0.188592 -0.578993
2003-04-11 09:07:26 51°45.36 3°32.85 -999 0.038672 0.231014 -0.578993
2003-04-11 09:07:30 51°45.37 3°32.87 -999 0.035866 0.21388 -0.612702
2003-04-11 09:07:36 51°45.38 3°32.91 -999 0.036697 0.218975 -0.646411
2003-04-11 09:07:40 51°45.39 3°32.93 -999 0.041687 0.24948 -0.612702
2003-04-11 09:07:46 51°45.41 3°32.97 -999 0.041687 0.24948 -0.612702
2003-04-11 09:07:50 51°45.41 3°32.99 -999 0.033891 0.201862 -0.612702
2003-04-11 09:07:56 51°45.43 3°33.02 -999 0.03888 0.232273 -0.646411
2003-04-11 09:08:00 51°45.44 3°33.05 -999 0.036801 0.219554 -0.612702
2003-04-11 09:08:06 51°45.45 3°33.08 -999 0.037737 0.225237 -0.612702
2003-04-11 09:08:10 51°45.46 3°33.1 -999 0.033891 0.201762 -0.612702
2003-04-11 09:08:16 51°45.47 3°33.14 -999 0.033891 0.201762 -0.612702
2003-04-11 09:08:20 51°45.48 3°33.16 -999 0.034411 0.204943 -0.612702
2003-04-11 09:08:26 51°45.49 3°33.19 -999 0.033787 0.201134 -0.612702
2003-04-11 09:08:30 51°45.5 3°33.22 -999 0.036697 0.21883 -0.578993
2003-04-11 09:08:36 51°45.51 3°33.25 -999 0.040024 0.239149 -0.612702
2003-04-11 09:08:40 51°45.52 3°33.27 -999 0.035866 0.213727 -0.612702
2003-04-11 09:08:46 51°45.53 3°33.31 -999 0.035866 0.213727 -0.612702
2003-04-11 09:08:50 51°45.54 3°33.33 -999 0.032747 0.194762 -0.646411
2003-04-11 09:08:56 51°45.55 3°33.36 -999 0.037945 0.226356 -0.612702
2003-04-11 09:09:00 51°45.56 3°33.39 -999 0.036074 0.214935 -0.612702
2003-04-11 09:09:06 51°45.57 3°33.42 -999 0.035034 0.208614 -0.612702
2003-04-11 09:09:10 51°45.58 3°33.44 -999 0.034411 0.204829 -0.612702
2003-04-11 09:09:16 51°45.59 3°33.48 -999 0.034411 0.204829 -0.612702
2003-04-11 09:09:20 51°45.6 3°33.5 -999 0.036489 0.21747 -0.612702
2003-04-11 09:09:26 51°45.61 3°33.53 -999 0.035138 0.209227 -0.612702
2003-04-11 09:09:30 51°45.62 3°33.56 -999 0.038776 0.231462 -0.612702
2003-04-11 09:09:36 51°45.63 3°33.59 -999 0.035762 0.21306 -0.612702
2003-04-11 09:09:40 51°45.64 3°33.61 -999 0.037841 0.225742 -0.612702
2003-04-11 09:09:46 51°45.65 3°33.65 -999 0.037841 0.225742 -0.612702
2003-04-11 09:09:50 51°45.66 3°33.67 -999 0.034514 0.205497 -0.646411
2003-04-11 09:09:56 51°45.67 3°33.7 -999 0.0394 0.235287 -0.612702
2003-04-11 09:10:00 51°45.68 3°33.73 -999 0.038049 0.227068 -0.612702
2003-04-11 09:10:06 51°45.69 3°33.76 -999 0.031916 0.189796 -0.578993
2003-04-11 09:10:10 51°45.7 3°33.78 -999 0.03493 0.208127 -0.612702
2003-04-11 09:10:16 51°45.72 3°33.82 -999 0.03493 0.208127 -0.612702
2003-04-11 09:10:20 51°45.72 3°33.84 -999 0.035242 0.210031 -0.612702
2003-04-11 09:10:26 51°45.74 3°33.87 -999 0.033995 0.202421 -0.578993
2003-04-11 09:10:30 51°45.74 3°33.9 -999 0.033579 0.199894 -0.578993
2003-04-11 09:10:36 51°45.76 3°33.93 -999 0.035138 0.209354 -0.578993
2003-04-11 09:10:40 51°45.77 3°33.95 -999 0.031708 0.188525 -0.612702
2003-04-11 09:10:46 51°45.78 3°33.99 -999 0.031708 0.188525 -0.612702
2003-04-11 09:10:50 51°45.79 3°34.01 -999 0.037841 0.225848 -0.612702
2003-04-11 09:10:56 51°45.8 3°34.04 -999 0.043662 0.261515 -0.578993
2003-04-11 09:11:00 51°45.81 3°34.07 -999 0.032436 0.192929 -0.612702
2003-04-11 09:11:06 51°45.82 3°34.1 -999 0.035554 0.211849 -0.578993
2003-04-11 09:11:10 51°45.83 3°34.12 -999 0.034514 0.20553 -0.545283
2003-04-11 09:11:16 51°45.84 3°34.16 -999 0.034514 0.20553 -0.545283
2003-04-11 09:11:20 51°45.85 3°34.18 -999 0.032436 0.192949 -0.545283
2003-04-11 09:11:26 51°45.86 3°34.21 -999 0.032124 0.191122 -0.545283
2003-04-11 09:11:30 51°45.87 3°34.24 -999 0.040959 0.245012 -0.511574
2003-04-11 09:11:36 51°45.88 3°34.27 -999 0.032955 0.196231 -0.511574
2003-04-11 09:11:40 51°45.89 3°34.29 -999 0.034411 0.205086 -0.511574
2003-04-11 09:11:46 51°45.9 3°34.33 -999 0.034411 0.205086 -0.511574
2003-04-11 09:11:50 51°45.91 3°34.35 -999 0.040647 0.243166 -0.511574
2003-04-11 09:11:56 51°45.92 3°34.38 -999 0.033995 0.202548 -0.511574
2003-04-11 09:12:00 51°45.93 3°34.41 -999 0.037841 0.22599 -0.511574
2003-04-11 09:12:06 51°45.94 3°34.44 -999 0.035554 0.212023 -0.545283
2003-04-11 09:12:10 51°45.95 3°34.46 -999 0.032228 0.191799 -0.511574
2003-04-11 09:12:16 51°45.96 3°34.5 -999 0.032228 0.191799 -0.511574
2003-04-11 09:12:20 51°45.97 3°34.52 -999 0.03202 0.190517 -0.511574
2003-04-11 09:12:26 51°45.98 3°34.56 -999 0.044494 0.266792 -0.511574
2003-04-11 09:12:30 51°45.99 3°34.58 -999 0.036593 0.218349 -0.545283
2003-04-11 09:12:36 51°46 3°34.62 -999 0.038049 0.227264 -0.545283
2003-04-11 09:12:40 51°46 3°34.64 -999 0.039192 0.234193 -0.545283
2003-04-11 09:12:46 51°46.01 3°34.68 -999 0.039192 0.234193 -0.545283
2003-04-11 09:12:50 51°46.02 3°34.7 -999 0.045014 0.2699 -0.545283
2003-04-11 09:12:56 51°46.03 3°34.74 -999 0.034826 0.207518 -0.545283
2003-04-11 09:13:00 51°46.03 3°34.76 -999 0.040647 0.2431 -0.545283
2003-04-11 09:13:06 51°46.04 3°34.8 -999 0.054786 0.330501 -0.578993
2003-04-11 09:13:10 51°46.05 3°34.82 -999 0.040024 0.239266 -0.578993
2003-04-11 09:13:16 51°46.05 3°34.86 -999 0.040024 0.239266 -0.578993
2003-04-11 09:13:20 51°46.06 3°34.89 -999 0.038049 0.227162 -0.612702
2003-04-11 09:13:26 51°46.07 3°34.92 -999 0.036074 0.215127 -0.612702
2003-04-11 09:13:30 51°46.08 3°34.95 -999 0.035658 0.212607 -0.578993
2003-04-11 09:13:36 51°46.08 3°34.98 -999 0.035242 0.210088 -0.612702
2003-04-11 09:13:40 51°46.09 3°35.01 -999 0.033059 0.196837 -0.612702
2003-04-11 09:13:46 51°46.1 3°35.05 -999 0.033059 0.196837 -0.612702
2003-04-11 09:13:50 51°46.1 3°35.07 -999 0.041271 0.247 -0.578993
2003-04-11 09:13:56 51°46.11 3°35.11 -999 0.040647 0.243232 -0.578993
2003-04-11 09:14:00 51°46.12 3°35.13 -999 0.033163 0.19758 -0.578993
2003-04-11 09:14:06 51°46.12 3°35.17 -999 0.055722 0.336563 -0.612702
2003-04-11 09:14:10 51°46.13 3°35.19 -999 0.034307 0.204519 -0.612702
2003-04-11 09:14:16 51°46.14 3°35.23 -999 0.034307 0.204519 -0.612702
2003-04-11 09:14:20 51°46.14 3°35.26 -999 0.114897 0.713666 -0.612702
2003-04-11 09:14:26 51°46.15 3°35.29 -999 0.052603 0.317041 -0.612702
2003-04-11 09:14:30 51°46.15 3°35.32 -999 0.042934 0.25723 -0.612702
2003-04-11 09:14:36 51°46.16 3°35.36 -999 0.058633 0.35447 -0.612702
2003-04-11 09:14:40 51°46.16 3°35.38 -999 0.036697 0.218971 -0.612702
2003-04-11 09:14:46 51°46.17 3°35.42 -999 0.036697 0.218971 -0.612702
2003-04-11 09:14:50 51°46.18 3°35.44 -999 0.060816 0.368265 -0.646411
2003-04-11 09:14:56 51°46.18 3°35.48 -999 0.044286 0.265555 -0.578993
2003-04-11 09:15:00 51°46.19 3°35.51 -999 0.041063 0.245751 -0.612702
2003-04-11 09:15:06 51°46.19 3°35.54 -999 0.04387 0.262999 -0.612702
2003-04-11 09:15:10 51°46.2 3°35.57 -999 0.0394 0.235546 -0.612702
2003-04-11 09:15:16 51°46.2 3°35.61 -999 0.0394 0.235546 -0.612702
2003-04-11 09:15:20 51°46.21 3°35.63 -999 0.038568 0.230445 -0.578993
2003-04-11 09:15:26 51°46.21 3°35.67 -999 0.036697 0.219074 -0.612702
2003-04-11 09:15:30 51°46.22 3°35.69 -999 0.039504 0.236267 -0.545283
2003-04-11 09:15:36 51°46.23 3°35.73 -999 0.044078 0.264428 -0.578993
2003-04-11 09:15:40 51°46.23 3°35.76 -999 0.038672 0.231223 -0.578993
2003-04-11 09:15:46 51°46.24 3°35.79 -999 0.038672 0.231223 -0.578993
2003-04-11 09:15:50 51°46.24 3°35.82 -999 0.04044 0.24211 -0.578993
2003-04-11 09:15:56 51°46.25 3°35.86 -999 0.057697 0.349026 -0.545283
2003-04-11 09:16:00 51°46.25 3°35.88 -999 0.03888 0.232478 -0.545283
2003-04-11 09:16:06 51°46.26 3°35.92 -999 0.045118 0.270728 -0.545283
2003-04-11 09:16:10 51°46.26 3°35.94 -999 0.034722 0.207026 -0.511574
2003-04-11 09:16:16 51°46.27 3°35.98 -999 0.034722 0.207026 -0.511574
2003-04-11 09:16:20 51°46.27 3°36.01 -999 0.057801 0.349476 -0.511574
2003-04-11 09:16:26 51°46.28 3°36.04 -999 0.036593 0.218436 -0.545283
2003-04-11 09:16:30 51°46.28 3°36.07 -999 0.036489 0.217798 -0.511574
2003-04-11 09:16:36 51°46.29 3°36.11 -999 0.041583 0.248986 -0.545283
2003-04-11 09:16:40 51°46.3 3°36.13 -999 0.03545 0.211493 -0.545283
2003-04-11 09:16:46 51°46.3 3°36.17 -999 0.03545 0.211493 -0.545283
2003-04-11 09:16:50 51°46.31 3°36.19 -999 0.041063 0.245858 -0.545283
2003-04-11 09:16:56 51°46.31 3°36.23 -999 0.036489 0.217829 -0.545283
2003-04-11 09:17:00 51°46.32 3°36.26 -999 0.054058 0.326272 -0.511574
2003-04-11 09:17:06 51°46.33 3°36.29 -999 0.038361 0.229311 -0.545283
2003-04-11 09:17:10 51°46.33 3°36.32 -999 0.039192 0.234438 -0.545283
2003-04-11 09:17:16 51°46.34 3°36.36 -999 0.039192 0.234438 -0.545283
2003-04-11 09:17:20 51°46.35 3°36.38 -999 0.03493 0.208437 -0.545283
2003-04-11 09:17:26 51°46.36 3°36.42 -999 0.036905 0.220477 -0.545283
2003-04-11 09:17:30 51°46.36 3°36.44 -999 0.036593 0.218569 -0.578993
2003-04-11 09:17:36 51°46.37 3°36.48 -999 0.038049 0.227518 -0.578993
2003-04-11 09:17:40 51°46.37 3°36.5 -999 0.045429 0.272855 -0.545283
2003-04-11 09:17:46 51°46.38 3°36.54 -999 0.045429 0.272855 -0.545283
2003-04-11 09:17:50 51°46.39 3°36.56 -999 0.033371 0.198924 -0.578993
2003-04-11 09:17:56 51°46.4 3°36.6 -999 0.042934 0.257407 -0.578993
2003-04-11 09:18:00 51°46.4 3°36.63 -999 0.03545 0.211561 -0.612702
2003-04-11 09:18:06 51°46.41 3°36.66 -999 0.038049 0.227436 -0.578993
2003-04-11 09:18:10 51°46.42 3°36.69 -999 0.036178 0.216001 -0.612702
2003-04-11 09:18:16 51°46.43 3°36.72 -999 0.036178 0.216001 -0.612702
2003-04-11 09:18:20 51°46.43 3°36.75 -999 0.034099 0.203361 -0.578993
2003-04-11 09:18:26 51°46.44 3°36.78 -999 0.044286 0.265797 -0.578993
2003-04-11 09:18:30 51°46.45 3°36.81 -999 0.038984 0.233245 -0.612702
2003-04-11 09:18:36 51°46.46 3°36.85 -999 0.056034 0.338764 -0.612702
2003-04-11 09:18:40 51°46.46 3°36.87 -999 0.03545 0.211656 -0.578993
2003-04-11 09:18:46 51°46.47 3°36.91 -999 0.03545 0.211656 -0.578993
2003-04-11 09:18:50 51°46.48 3°36.93 -999 0.044494 0.267108 -0.612702
2003-04-11 09:18:56 51°46.49 3°36.97 -999 0.036489 0.217966 -0.578993
2003-04-11 09:19:00 51°46.49 3°36.99 -999 0.056969 0.344524 -0.578993
2003-04-11 09:19:06 51°46.5 3°37.03 -999 0.03992 0.238927 -0.612702
2003-04-11 09:19:10 51°46.51 3°37.05 -999 0.034722 0.207119 -0.578993
2003-04-11 09:19:16 51°46.52 3°37.09 -999 0.034722 0.207119 -0.578993
2003-04-11 09:19:20 51°46.53 3°37.11 -999 0.036697 0.219148 -0.612702
2003-04-11 09:19:26 51°46.54 3°37.15 -999 0.035034 0.209002 -0.612702
2003-04-11 09:19:30 51°46.54 3°37.17 -999 0.041271 0.247246 -0.612702
2003-04-11 09:19:36 51°46.55 3°37.21 -999 0.036178 0.216082 -0.612702
2003-04-11 09:19:40 51°46.56 3°37.24 -999 0.039504 0.236438 -0.646411
2003-04-11 09:19:46 51°46.57 3°37.27 -999 0.039504 0.236438 -0.646411
2003-04-11 09:19:50 51°46.57 3°37.3 -999 0.051355 0.309612 -0.612702
2003-04-11 09:19:56 51°46.58 3°37.33 -999 0.035762 0.213538 -0.612702
2003-04-11 09:20:00 51°46.59 3°37.36 -999 0.035138 0.209729 -0.646411
2003-04-11 09:20:06 51°46.6 3°37.39 -999 0.036593 0.218597 -0.646411
2003-04-11 09:20:10 51°46.6 3°37.42 -999 0.038568 0.230691 -0.612702
2003-04-11 09:20:16 51°46.61 3°37.46 -999 0.038568 0.230691 -0.612702
2003-04-11 09:20:20 51°46.62 3°37.48 -999 0.033371 0.198952 -0.612702
2003-04-11 09:20:26 51°46.63 3°37.52 -999 0.049276 0.296691 -0.612702
2003-04-11 09:20:30 51°46.64 3°37.54 -999 0.035138 0.209752 -0.612702
2003-04-11 09:20:36 51°46.65 3°37.58 -999 0.037737 0.225607 -0.646411
2003-04-11 09:20:40 51°46.65 3°37.6 -999 0.040128 0.240237 -0.612702
2003-04-11 09:20:46 51°46.66 3°37.64 -999 0.040128 0.240237 -0.612702
2003-04-11 09:20:50 51°46.67 3°37.66 -999 0.030565 0.18194 -0.578993
2003-04-11 09:20:56 51°46.68 3°37.7 -999 0.048132 0.289617 -0.578993
2003-04-11 09:21:00 51°46.69 3°37.72 -999 0.03493 0.208478 -0.578993
2003-04-11 09:21:06 51°46.7 3°37.76 -999 0.050523 0.304452 -0.545283
2003-04-11 09:21:10 51°46.7 3°37.78 -999 0.040232 0.240935 -0.545283
2003-04-11 09:21:16 51°46.71 3°37.82 -999 0.040232 0.240935 -0.545283
2003-04-11 09:21:20 51°46.72 3°37.84 -999 0.046781 0.28128 -0.545283
2003-04-11 09:21:26 51°46.73 3°37.88 -999 0.041687 0.249846 -0.511574
2003-04-11 09:21:30 51°46.74 3°37.9 -999 0.036905 0.220521 -0.511574
2003-04-11 09:21:36 51°46.75 3°37.94 -999 0.041791 0.250449 -0.545283
2003-04-11 09:21:40 51°46.75 3°37.96 -999 0.04044 0.242145 -0.511574
2003-04-11 09:21:46 51°46.76 3°38 -999 0.04044 0.242145 -0.511574
2003-04-11 09:21:50 51°46.77 3°38.02 -999 0.056657 0.342633 -0.511574
2003-04-11 09:21:56 51°46.78 3°38.06 -999 0.03545 0.21166 -0.545283
2003-04-11 09:22:00 51°46.79 3°38.08 -999 0.039088 0.233941 -0.578993
2003-04-11 09:22:06 51°46.8 3°38.12 -999 0.037425 0.223757 -0.545283
2003-04-11 09:22:10 51°46.81 3°38.14 -999 0.035138 0.209763 -0.545283
2003-04-11 09:22:16 51°46.82 3°38.18 -999 0.035138 0.209763 -0.545283
2003-04-11 09:22:20 51°46.82 3°38.2 -999 0.047197 0.283909 -0.511574
2003-04-11 09:22:26 51°46.83 3°38.24 -999 0.038984 0.233346 -0.545283
2003-04-11 09:22:30 51°46.84 3°38.26 -999 0.037529 0.224413 -0.578993
2003-04-11 09:22:36 51°46.85 3°38.3 -999 0.047093 0.283323 -0.578993
2003-04-11 09:22:40 51°46.86 3°38.32 -999 0.041791 0.250658 -0.578993
2003-04-11 09:22:46 51°46.87 3°38.36 -999 0.041791 0.250658 -0.578993
2003-04-11 09:22:50 51°46.87 3°38.38 -999 0.149648 0.942863 -0.612702
2003-04-11 09:22:56 51°46.88 3°38.42 -999 0.050004 0.301514 -0.612702
2003-04-11 09:23:00 51°46.89 3°38.44 -999 0.114897 0.714996 -0.578993
2003-04-11 09:23:06 51°46.9 3°38.48 -999 0.060712 0.36826 -0.578993
2003-04-11 09:23:10 51°46.91 3°38.5 -999 0.047509 0.285965 -0.612702
2003-04-11 09:23:16 51°46.92 3°38.53 -999 0.047509 0.285965 -0.612702
2003-04-11 09:23:20 51°46.93 3°38.56 -999 0.093261 0.575086 -0.578993
2003-04-11 09:23:26 51°46.93 3°38.59 -999 0.039816 0.23851 -0.612702
2003-04-11 09:23:30 51°46.94 3°38.62 -999 0.089101 0.54838 -0.612702
2003-04-11 09:23:36 51°46.95 3°38.65 -999 0.049068 0.295646 -0.578993
2003-04-11 09:23:40 51°46.96 3°38.68 -999 0.046781 0.281486 -0.578993
2003-04-11 09:23:46 51°46.97 3°38.71 -999 0.046781 0.281486 -0.578993
2003-04-11 09:23:50 51°46.98 3°38.74 -999 0.042415 0.254515 -0.578993
2003-04-11 09:23:56 51°46.99 3°38.77 -999 0.048236 0.290462 -0.545283
2003-04-11 09:24:00 51°46.99 3°38.8 -999 0.045325 0.272472 -0.511574
2003-04-11 09:24:06 51°47 3°38.83 -999 0.049276 0.296821 -0.511574
2003-04-11 09:24:10 51°47.01 3°38.86 -999 0.036697 0.219271 -0.511574
2003-04-11 09:24:16 51°47.02 3°38.89 -999 0.036697 0.219271 -0.511574
2003-04-11 09:24:20 51°47.03 3°38.92 -999 0.085045 0.522265 -0.511574
2003-04-11 09:24:26 51°47.04 3°38.95 -999 0.044182 0.265388 -0.511574
2003-04-11 09:24:30 51°47.05 3°38.98 -999 0.056969 0.344957 -0.578993
2003-04-11 09:24:36 51°47.06 3°39.01 -999 0.046677 0.280909 -0.545283
2003-04-11 09:24:40 51°47.06 3°39.04 -999 0.042415 0.25458 -0.578993
2003-04-11 09:24:46 51°47.07 3°39.07 -999 0.042415 0.25458 -0.578993
2003-04-11 09:24:50 51°47.08 3°39.1 -999 0.039816 0.23857 -0.578993
2003-04-11 09:24:56 51°47.09 3°39.13 -999 0.047301 0.284719 -0.578993
2003-04-11 09:25:00 51°47.1 3°39.16 -999 0.037321 0.223282 -0.578993
2003-04-11 09:25:06 51°47.11 3°39.19 -999 0.041271 0.247556 -0.578993
2003-04-11 09:25:10 51°47.11 3°39.22 -999 0.041271 0.24757 -0.612702
2003-04-11 09:25:16 51°47.12 3°39.25 -999 0.041271 0.24757 -0.612702
2003-04-11 09:25:20 51°47.13 3°39.27 -999 0.045118 0.271366 -0.578993
2003-04-11 09:25:26 51°47.14 3°39.3 -999 0.040647 0.24377 -0.612702
2003-04-11 09:25:30 51°47.15 3°39.32 -999 0.041375 0.248254 -0.612702
2003-04-11 09:25:36 51°47.16 3°39.35 -999 0.042311 0.254042 -0.612702
2003-04-11 09:25:40 51°47.16 3°39.36 -999 0.038257 0.229129 -0.612702
2003-04-11 09:25:46 51°47.17 3°39.38 -999 0.038257 0.229129 -0.612702
2003-04-11 09:25:50 51°47.18 3°39.4 -999 0.037945 0.227235 -0.612702
2003-04-11 09:25:56 51°47.19 3°39.41 -999 0.035762 0.213872 -0.578993
2003-04-11 09:26:00 51°47.2 3°39.43 -999 0.03545 0.211964 -0.612702
2003-04-11 09:26:06 51°47.21 3°39.44 -999 0.040232 0.241263 -0.578993
2003-04-11 09:26:10 51°47.21 3°39.45 -999 0.038984 0.233634 -0.578993
2003-04-11 09:26:16 51°47.22 3°39.46 -999 0.038984 0.233634 -0.578993
2003-04-11 09:26:20 51°47.23 3°39.47 -999 0.040232 0.241333 -0.578993
2003-04-11 09:26:26 51°47.24 3°39.48 -999 0.039296 0.235586 -0.612702
2003-04-11 09:26:30 51°47.24 3°39.49 -999 0.036801 0.22031 -0.646411
2003-04-11 09:26:36 51°47.25 3°39.5 -999 0.037633 0.225398 -0.612702
2003-04-11 09:26:40 51°47.26 3°39.5 -999 0.038984 0.233689 -0.578993
2003-04-11 09:26:46 51°47.26 3°39.51 -999 0.038984 0.233689 -0.578993
2003-04-11 09:26:50 51°47.27 3°39.52 -999 0.033891 0.202528 -0.578993
2003-04-11 09:26:56 51°47.27 3°39.52 -999 0.033683 0.201257 -0.612702
2003-04-11 09:27:00 51°47.28 3°39.52 -999 0.033163 0.198089 -0.612702
2003-04-11 09:27:06 51°47.28 3°39.53 -999 0.034618 0.206949 -0.612702
2003-04-11 09:27:10 51°47.29 3°39.53 -999 0.033371 0.199337 -0.612702
2003-04-11 09:27:16 51°47.29 3°39.53 -999 0.033371 0.199337 -0.612702
2003-04-11 09:27:20 51°47.29 3°39.54 -999 0.037217 0.222827 -0.612702
2003-04-11 09:27:26 51°47.3 3°39.54 -999 0.039088 0.23431 -0.612702
2003-04-11 09:27:30 51°47.3 3°39.54 -999 0.04044 0.242598 -0.646411
2003-04-11 09:27:36 51°47.3 3°39.55 -999 0.041791 0.250904 -0.612702
2003-04-11 09:27:40 51°47.3 3°39.55 -999 0.037841 0.226631 -0.612702
2003-04-11 09:27:46 51°47.31 3°39.55 -999 0.037841 0.226631 -0.612702
2003-04-11 09:27:50 51°47.31 3°39.55 -999 0.034411 0.205641 -0.612702
2003-04-11 09:27:56 51°47.31 3°39.55 -999 0.037633 0.243584 -0.612702
2003-04-11 09:28:00 51°47.32 3°39.56 -999 0.045949 0.276554 -0.612702
2003-04-11 09:28:06 51°47.32 3°39.56 -999 0.050835 0.306879 -0.578993
2003-04-11 09:28:10 51°47.32 3°39.56 -999 0.040232 0.241272 -0.612702
2003-04-11 09:28:16 51°47.33 3°39.56 -999 0.040232 0.241272 -0.612702
2003-04-11 09:28:20 51°47.33 3°39.57 -999 0.044078 0.264925 -0.578993
2003-04-11 09:28:26 51°47.33 3°39.57 -999 0.053123 0.321009 -0.612702
2003-04-11 09:28:30 51°47.33 3°39.57 -999 0.051355 0.310004 -0.578993
2003-04-11 09:28:36 51°47.34 3°39.57 -999 0.043766 0.262953 -0.612702
2003-04-11 09:28:40 51°47.34 3°39.57 -999 0.045118 0.271277 -0.612702
2003-04-11 09:28:46 51°47.34 3°39.58 -999 0.045118 0.271277 -0.612702
2003-04-11 09:28:50 51°47.34 3°39.58 -999 0.048756 0.293787 -0.612702
2003-04-11 09:28:56 51°47.35 3°39.58 -999 0.04886 0.294453 -0.612702
2003-04-11 09:29:00 51°47.35 3°39.58 -999 0.038361 0.229679 -0.578993
2003-04-11 09:29:06 51°47.35 3°39.59 -999 0.035554 0.212477 -0.612702
2003-04-11 09:29:10 51°47.35 3°39.59 -999 0.041375 0.248132 -0.612702
2003-04-11 09:29:16 51°47.36 3°39.59 -999 0.041375 0.248132 -0.612702
2003-04-11 09:29:20 51°47.36 3°39.59 -999 0.036593 0.218801 -0.612702
2003-04-11 09:29:26 51°47.36 3°39.6 -999 0.037425 0.223898 -0.612702
2003-04-11 09:29:30 51°47.36 3°39.6 -999 0.038049 0.227752 -0.612702
2003-04-11 09:29:36 51°47.37 3°39.6 -999 0.037945 0.227136 -0.612702
2003-04-11 09:29:40 51°47.37 3°39.6 -999 0.041063 0.246282 -0.578993
2003-04-11 09:29:46 51°47.37 3°39.6 -999 0.041063 0.246282 -0.578993
2003-04-11 09:29:50 51°47.37 3°39.61 -999 0.041375 0.248196 -0.612702
2003-04-11 09:29:56 51°47.38 3°39.61 -999 0.041063 0.246264 -0.612702
2003-04-11 09:30:00 51°47.38 3°39.61 -999 0.038465 0.230312 -0.612702
2003-04-11 09:30:06 51°47.38 3°39.61 -999 0.036593 0.218884 -0.612702
2003-04-11 09:30:10 51°47.38 3°39.61 -999 0.038257 0.22908 -0.612702
2003-04-11 09:30:16 51°47.39 3°39.62 -999 0.038257 0.22908 -0.612702
2003-04-11 09:30:20 51°47.39 3°39.62 -999 0.037945 0.227169 -0.578993
2003-04-11 09:30:26 51°47.39 3°39.62 -999 0.042519 0.255276 -0.612702
2003-04-11 09:30:30 51°47.39 3°39.62 -999 0.047197 0.284211 -0.612702
2003-04-11 09:30:36 51°47.4 3°39.63 -999 0.033787 0.201793 -0.612702
2003-04-11 09:30:40 51°47.4 3°39.63 -999 0.038153 0.228554 -0.646411
2003-04-11 09:30:46 51°47.4 3°39.63 -999 0.038153 0.228554 -0.646411
2003-04-11 09:30:50 51°47.4 3°39.63 -999 0.038776 0.232417 -0.578993
2003-04-11 09:30:56 51°47.41 3°39.63 -999 0.041271 0.247718 -0.612702
2003-04-11 09:31:00 51°47.41 3°39.64 -999 0.04044 0.242545 -0.612702
2003-04-11 09:31:06 51°47.41 3°39.64 -999 0.040751 0.244418 -0.646411
2003-04-11 09:31:10 51°47.41 3°39.64 -999 0.035554 0.212561 -0.612702
2003-04-11 09:31:16 51°47.42 3°39.64 -999 0.035554 0.212561 -0.612702
2003-04-11 09:31:20 51°47.42 3°39.64 -999 0.038361 0.229754 -0.612702
2003-04-11 09:31:26 51°47.42 3°39.65 -999 0.033891 0.202433 -0.612702
2003-04-11 09:31:30 51°47.42 3°39.65 -999 0.034514 0.206245 -0.612702
2003-04-11 09:31:36 51°47.42 3°39.65 -999 0.033371 0.199269 -0.612702
2003-04-11 09:31:40 51°47.43 3°39.65 -999 0.034514 0.206234 -0.646411
2003-04-11 09:31:46 51°47.43 3°39.66 -999 0.034514 0.206234 -0.646411
2003-04-11 09:31:50 51°47.43 3°39.66 -999 0.032643 0.19485 -0.612702
2003-04-11 09:31:56 51°47.43 3°39.66 -999 0.030045 0.179083 -0.612702
2003-04-11 09:32:00 51°47.43 3°39.66 -999 0.032436 0.193607 -0.612702
2003-04-11 09:32:06 51°47.44 3°39.66 -999 0.032851 0.196159 -0.646411
2003-04-11 09:32:10 51°47.44 3°39.67 -999 0.034307 0.205014 -0.612702
2003-04-11 09:32:16 51°47.44 3°39.67 -999 0.034307 0.205014 -0.612702
2003-04-11 09:32:20 51°47.44 3°39.67 -999 0.031396 0.187297 -0.612702
2003-04-11 09:32:26 51°47.45 3°39.67 -999 0.033371 0.199315 -0.612702
2003-04-11 09:32:30 51°47.45 3°39.67 -999 0.033475 0.199944 -0.612702
2003-04-11 09:32:36 51°47.45 3°39.68 -999 0.037945 0.227264 -0.612702
2003-04-11 09:32:40 51°47.45 3°39.68 -999 0.031708 0.18922 -0.612702
2003-04-11 09:32:46 51°47.45 3°39.68 -999 0.031708 0.18922 -0.612702
2003-04-11 09:32:50 51°47.46 3°39.68 -999 0.031916 0.190479 -0.612702
2003-04-11 09:32:56 51°47.46 3°39.68 -999 0.0394 0.236224 -0.646411
2003-04-11 09:33:00 51°47.46 3°39.69 -999 0.042415 0.254821 -0.646411
2003-04-11 09:33:06 51°47.46 3°39.69 -999 0.041999 0.252268 -0.612702
2003-04-11 09:33:10 51°47.46 3°39.69 -999 0.039608 0.237557 -0.646411
2003-04-11 09:33:16 51°47.47 3°39.69 -999 0.039608 0.237557 -0.646411
2003-04-11 09:33:20 51°47.47 3°39.69 -999 0.042831 0.257395 -0.612702
2003-04-11 09:33:26 51°47.47 3°39.7 -999 0.038672 0.2318 -0.646411
2003-04-11 09:33:30 51°47.47 3°39.7 -999 0.039296 0.23562 -0.612702
2003-04-11 09:33:36 51°47.47 3°39.7 -999 0.042831 0.257371 -0.578993
2003-04-11 09:33:40 51°47.47 3°39.7 -999 0.042727 0.256721 -0.612702
2003-04-11 09:33:46 51°47.48 3°39.7 -999 0.042727 0.256721 -0.612702
2003-04-11 09:33:50 51°47.48 3°39.71 -999 0.043142 0.259285 -0.646411
2003-04-11 09:33:56 51°47.48 3°39.71 -999 0.044494 0.267629 -0.646411
2003-04-11 09:34:00 51°47.48 3°39.71 -999 0.03888 0.233042 -0.612702
2003-04-11 09:34:06 51°47.48 3°39.71 -999 0.041375 0.248408 -0.612702
2003-04-11 09:34:10 51°47.49 3°39.71 -999 0.045741 0.275358 -0.612702
2003-04-11 09:34:16 51°47.49 3°39.72 -999 0.045741 0.275358 -0.612702
2003-04-11 09:34:20 51°47.49 3°39.72 -999 0.042207 0.253512 -0.612702
2003-04-11 09:34:26 51°47.49 3°39.72 -999 0.042519 0.255411 -0.612702
2003-04-11 09:34:30 51°47.49 3°39.72 -999 0.04938 0.297865 -0.612702
2003-04-11 09:34:36 51°47.5 3°39.72 -999 0.047197 0.28432 -0.646411
2003-04-11 09:34:40 51°47.5 3°39.72 -999 0.041999 0.252167 -0.578993
2003-04-11 09:34:46 51°47.5 3°39.73 -999 0.041999 0.252167 -0.578993
2003-04-11 09:34:50 51°47.5 3°39.73 -999 0.045118 0.271391 -0.612702
2003-04-11 09:34:56 51°47.5 3°39.73 -999 0.039192 0.234871 -0.578993
2003-04-11 09:35:00 51°47.5 3°39.73 -999 0.041063 0.246448 -0.646411
2003-04-11 09:35:06 51°47.51 3°39.74 -999 0.041375 0.248412 -0.646411
2003-04-11 09:35:10 51°47.51 3°39.74 -999 0.037529 0.224753 -0.646411
2003-04-11 09:35:16 51°47.51 3°39.74 -999 0.037529 0.224753 -0.646411
2003-04-11 09:35:20 51°47.51 3°39.74 -999 0.042727 0.256693 -0.612702
2003-04-11 09:35:26 51°47.52 3°39.75 -999 0.037945 0.227239 -0.578993
2003-04-11 09:35:30 51°47.52 3°39.75 -999 0.045325 0.272686 -0.612702
2003-04-11 09:35:36 51°47.52 3°39.76 -999 0.03888 0.232945 -0.612702
2003-04-11 09:35:40 51°47.53 3°39.76 -999 0.036489 0.218312 -0.646411
2003-04-11 09:35:46 51°47.53 3°39.77 -999 0.036489 0.218312 -0.646411
2003-04-11 09:35:50 51°47.53 3°39.77 -999 0.038361 0.2298 -0.646411
2003-04-11 09:35:56 51°47.54 3°39.78 -999 0.04335 0.260535 -0.612702
2003-04-11 09:36:00 51°47.54 3°39.79 -999 0.042207 0.253521 -0.612702
2003-04-11 09:36:06 51°47.54 3°39.8 -999 0.042103 0.252954 -0.578993
2003-04-11 09:36:10 51°47.54 3°39.8 -999 1.786408 13.320316 -0.376736
2003-04-11 09:36:16 51°47.55 3°39.81 -999 1.786408 13.320316 -0.376736
2003-04-11 09:36:20 51°47.55 3°39.82 -999 0.55426 3.774855 12.76993
2003-04-11 09:36:26 51°47.55 3°39.83 -999 2.833587 21.665301 11.050751
2003-04-11 09:36:30 51°47.55 3°39.84 -999 3.456128 27.347151 26.354819
2003-04-11 09:36:36 51°47.55 3°39.85 -999 3.52673 29.137143 64.412734
2003-04-11 09:36:40 51°47.55 3°39.86 -999 3.545927 30.860929 68.087059
2003-04-11 09:36:46 51°47.55 3°39.87 -999 3.545927 30.860929 68.087059
2003-04-11 09:36:50 51°47.55 3°39.88 -999 3.490419 31.389045 68.053349
2003-04-11 09:36:56 51°47.54 3°39.89 -999 3.42185 31.472366 67.98593
2003-04-11 09:37:00 51°47.54 3°39.89 -999 3.385937 31.586068 68.01964
2003-04-11 09:37:06 51°47.54 3°39.9 -999 3.331066 31.343496 68.01964
2003-04-11 09:37:10 51°47.54 3°39.91 -999 3.302948 31.27261 67.98593
2003-04-11 09:37:16 51°47.53 3°39.92 -999 3.302948 31.27261 67.98593
2003-04-11 09:37:20 51°47.53 3°39.92 -999 3.287574 31.240233 67.98593
2003-04-11 09:37:26 51°47.52 3°39.93 -999 3.268198 31.139395 68.01964
2003-04-11 09:37:30 51°47.52 3°39.93 -999 3.258404 31.073181 68.01964
2003-04-11 09:37:36 51°47.52 3°39.94 -999 3.247664 30.998327 68.01964
2003-04-11 09:37:40 51°47.51 3°39.94 -999 3.230604 30.837273 68.01964
2003-04-11 09:37:46 51°47.51 3°39.94 -999 3.230604 30.837273 68.01964
2003-04-11 09:37:50 51°47.5 3°39.94 -999 3.215968 30.695868 68.01964
2003-04-11 09:37:56 51°47.5 3°39.94 -999 3.216179 30.743089 67.98593
2003-04-11 09:38:00 51°47.49 3°39.94 -999 3.038988 28.896434 68.01964
2003-04-11 09:38:06 51°47.49 3°39.94 -999 3.236503 31.011189 68.01964
2003-04-11 09:38:10 51°47.48 3°39.94 -999 3.231132 30.970615 67.98593
2003-04-11 09:38:16 51°47.48 3°39.94 -999 3.231132 30.970615 67.98593
2003-04-11 09:38:20 51°47.48 3°39.94 -999 3.230501 30.978089 67.98593
2003-04-11 09:38:26 51°47.47 3°39.94 -999 3.227026 30.950144 67.98593
2003-04-11 09:38:30 51°47.47 3°39.95 -999 3.222709 30.912496 68.053349
2003-04-11 09:38:36 51°47.46 3°39.95 -999 3.220392 30.890128 68.053349
2003-04-11 09:38:40 51°47.46 3°39.95 -999 3.211968 30.800678 68.01964
2003-04-11 09:38:46 51°47.45 3°39.95 -999 3.211968 30.800678 68.01964
2003-04-11 09:38:50 51°47.45 3°39.95 -999 3.217023 30.873705 67.98593
2003-04-11 09:38:56 51°47.44 3°39.95 -999 3.209231 30.79687 67.98593
2003-04-11 09:39:00 51°47.44 3°39.95 -999 3.207019 30.787501 68.053349
2003-04-11 09:39:06 51°47.43 3°39.94 -999 3.203334 30.760224 68.01964
2003-04-11 09:39:10 51°47.43 3°39.94 -999 3.204492 30.774024 68.053349
2003-04-11 09:39:16 51°47.42 3°39.94 -999 3.204492 30.774024 68.053349
2003-04-11 09:39:20 51°47.42 3°39.94 -999 3.204071 30.77252 68.053349
2003-04-11 09:39:26 51°47.41 3°39.94 -999 3.184802 30.570699 68.01964
2003-04-11 09:39:30 51°47.41 3°39.93 -999 3.198491 30.720618 68.053349
2003-04-11 09:39:36 51°47.4 3°39.93 -999 3.199754 30.731824 68.087059
2003-04-11 09:39:40 51°47.4 3°39.93 -999 3.194279 30.672877 68.01964
2003-04-11 09:39:46 51°47.39 3°39.93 -999 3.194279 30.672877 68.01964
2003-04-11 09:39:50 51°47.39 3°39.93 -999 3.193963 30.671744 68.053349
2003-04-11 09:39:56 51°47.38 3°39.93 -999 3.199544 30.735528 68.053349
2003-04-11 09:40:00 51°47.38 3°39.93 -999 3.197648 30.722802 68.01964
2003-04-11 09:40:06 51°47.37 3°39.93 -999 3.196596 30.719775 68.01964
2003-04-11 09:40:10 51°47.37 3°39.92 -999 3.194384 30.69774 68.053349
2003-04-11 09:40:16 51°47.36 3°39.92 -999 3.194384 30.69774 68.053349
2003-04-11 09:40:20 51°47.36 3°39.92 -999 3.193963 30.697715 67.98593
2003-04-11 09:40:26 51°47.36 3°39.92 -999 3.193858 30.696595 68.01964
2003-04-11 09:40:30 51°47.35 3°39.91 -999 3.192279 30.687218 68.053349
2003-04-11 09:40:36 51°47.35 3°39.91 -999 3.192068 30.68869 68.087059
2003-04-11 09:40:40 51°47.35 3°39.91 -999 3.18933 30.661786 68.053349
2003-04-11 09:40:46 51°47.34 3°39.9 -999 3.18933 30.661786 68.053349
2003-04-11 09:40:50 51°47.34 3°39.9 -999 3.191015 30.681942 68.01964
2003-04-11 09:40:56 51°47.34 3°39.89 -999 3.190173 30.675947 68.01964
2003-04-11 09:41:00 51°47.34 3°39.89 -999 3.189752 30.669237 68.053349
2003-04-11 09:41:06 51°47.33 3°39.88 -999 3.188804 30.659895 68.053349
2003-04-11 09:41:10 51°47.33 3°39.87 -999 3.183013 30.599015 68.087059
2003-04-11 09:41:16 51°47.33 3°39.87 -999 3.183013 30.599015 68.087059
2003-04-11 09:41:20 51°47.33 3°39.86 -999 3.187119 30.644935 68.01964
2003-04-11 09:41:26 51°47.33 3°39.86 -999 3.186487 30.634503 68.053349
2003-04-11 09:41:30 51°47.32 3°39.85 -999 3.186803 30.634156 68.01964
2003-04-11 09:41:36 51°47.32 3°39.85 -999 3.185645 30.626282 68.01964
2003-04-11 09:41:40 51°47.32 3°39.84 -999 3.18196 30.590776 68.053349
2003-04-11 09:41:46 51°47.32 3°39.83 -999 3.18196 30.590776 68.053349
2003-04-11 09:41:50 51°47.32 3°39.83 -999 3.179117 30.56423 68.053349
2003-04-11 09:41:56 51°47.31 3°39.82 -999 3.182802 30.605666 68.01964
2003-04-11 09:42:00 51°47.31 3°39.82 -999 3.180907 30.58846 68.087059
2003-04-11 09:42:06 51°47.31 3°39.81 -999 3.181644 30.599268 68.087059
2003-04-11 09:42:10 51°47.31 3°39.81 -999 3.179959 30.584301 68.01964
2003-04-11 09:42:16 51°47.31 3°39.8 -999 3.179959 30.584301 68.01964
2003-04-11 09:42:20 51°47.3 3°39.8 -999 3.175748 30.542436 68.053349
2003-04-11 09:42:26 51°47.3 3°39.79 -999 3.177748 30.568913 68.053349
2003-04-11 09:42:30 51°47.3 3°39.79 -999 3.178696 30.585671 68.087059
2003-04-11 09:42:36 51°47.29 3°39.79 -999 3.178485 30.584911 68.01964
2003-04-11 09:42:40 51°47.29 3°39.78 -999 3.179117 30.59238 68.053349
2003-04-11 09:42:46 51°47.29 3°39.78 -999 3.179117 30.59238 68.053349
2003-04-11 09:42:50 51°47.29 3°39.77 -999 3.178801 30.588275 68.01964
2003-04-11 09:42:56 51°47.28 3°39.77 -999 3.175958 30.558744 68.01964
2003-04-11 09:43:00 51°47.28 3°39.77 -999 3.178696 30.590861 68.053349
2003-04-11 09:43:06 51°47.28 3°39.76 -999 3.177433 30.578146 68.01964
2003-04-11 09:43:10 51°47.28 3°39.76 -999 3.176906 30.574763 68.01964
2003-04-11 09:43:16 51°47.27 3°39.75 -999 3.176906 30.574763 68.01964
2003-04-11 09:43:20 51°47.27 3°39.75 -999 3.177222 30.580351 68.087059
2003-04-11 09:43:26 51°47.27 3°39.75 -999 3.177327 30.581473 68.053349
2003-04-11 09:43:30 51°47.27 3°39.74 -999 3.174169 30.54783 68.053349
2003-04-11 09:43:36 51°47.26 3°39.74 -999 3.177854 30.587081 68.053349
2003-04-11 09:43:40 51°47.26 3°39.74 -999 3.175959 30.567635 68.01964
2003-04-11 09:43:46 51°47.26 3°39.73 -999 3.175959 30.567635 68.01964
2003-04-11 09:43:50 51°47.26 3°39.73 -999 3.177433 30.582594 68.053349
2003-04-11 09:43:56 51°47.25 3°39.73 -999 3.176274 30.570999 68.01964
2003-04-11 09:44:00 51°47.25 3°39.72 -999 3.176485 30.575466 68.01964
2003-04-11 09:44:06 51°47.25 3°39.72 -999 3.178064 30.592291 68.01964
2003-04-11 09:44:10 51°47.25 3°39.72 -999 3.176801 30.581797 68.01964
2003-04-11 09:44:16 51°47.25 3°39.71 -999 3.176801 30.581797 68.01964
2003-04-11 09:44:20 51°47.24 3°39.71 -999 3.172589 30.539155 68.01964
2003-04-11 09:44:26 51°47.24 3°39.71 -999 3.175222 30.568679 68.01964
2003-04-11 09:44:30 51°47.24 3°39.71 -999 3.176275 30.582122 68.053349
2003-04-11 09:44:36 51°47.24 3°39.7 -999 3.176696 30.588836 68.087059
2003-04-11 09:44:40 51°47.23 3°39.7 -999 3.173221 30.554036 68.01964
2003-04-11 09:44:46 51°47.23 3°39.7 -999 3.173221 30.554036 68.01964
2003-04-11 09:44:50 51°47.23 3°39.7 -999 3.175959 30.586175 68.01964
2003-04-11 09:44:56 51°47.23 3°39.69 -999 3.174169 30.566358 68.053349
2003-04-11 09:45:00 51°47.22 3°39.69 -999 3.173432 30.559245 68.087059
2003-04-11 09:45:06 51°47.22 3°39.69 -999 3.175643 30.582809 68.053349
2003-04-11 09:45:10 51°47.22 3°39.69 10.233129 3.175538 30.580203 68.053349
2003-04-11 09:45:16 51°47.22 3°39.69 10.233129 3.175538 30.580203 68.053349
2003-04-11 09:45:20 51°47.22 3°39.68 11.195776 3.170168 30.522244 68.087059
2003-04-11 09:45:26 51°47.21 3°39.68 11.082477 3.178065 30.606392 68.01964
2003-04-11 09:45:30 51°47.21 3°39.68 9.902765 3.177643 30.600419 68.01964
2003-04-11 09:45:36 51°47.21 3°39.68 9.319158 3.177538 30.593359 68.053349
2003-04-11 09:45:40 51°47.21 3°39.68 8.84413 3.176906 30.582177 68.053349
2003-04-11 09:45:46 51°47.2 3°39.68 8.84413 3.176906 30.582177 68.053349
2003-04-11 09:45:50 51°47.2 3°39.67 10.316964 3.176801 30.589958 68.120768
2003-04-11 09:45:56 51°47.2 3°39.67 10.732268 3.174906 30.579406 68.087059
2003-04-11 09:46:00 51°47.2 3°39.67 11.410729 3.172905 30.563275 68.053349
2003-04-11 09:46:06 51°47.19 3°39.67 9.888484 3.173958 30.575983 68.053349
2003-04-11 09:46:10 51°47.19 3°39.67 11.374363 3.173643 30.578554 68.087059
2003-04-11 09:46:16 51°47.19 3°39.67 11.374363 3.173643 30.578554 68.087059
2003-04-11 09:46:20 51°47.19 3°39.66 10.45875 3.175538 30.601735 68.01964
2003-04-11 09:46:26 51°47.18 3°39.66 8.877924 3.173853 30.587483 68.01964
2003-04-11 09:46:30 51°47.18 3°39.66 10.801431 3.17438 30.595326 68.053349
2003-04-11 09:46:36 51°47.18 3°39.66 10.953823 3.175538 30.609167 68.053349
2003-04-11 09:46:40 51°47.18 3°39.66 11.107892 3.175117 30.601701 68.053349
2003-04-11 09:46:46 51°47.17 3°39.65 11.107892 3.175117 30.601701 68.053349
2003-04-11 09:46:50 51°47.17 3°39.65 9.467384 3.175643 30.613264 68.01964